<?xml version="1.0" encoding="UTF-8" standalone="no" ?>
<gpx xmlns="http://www.topografix.com/GPX/1/1" xmlns:xsi="http://www.w3.org/2001/XMLSchema-instance" xsi:schemaLocation="http://www.topografix.com/GPX/1/1 http://www.topografix.com/GPX/1/1/gpx.xsd" version="1.1" creator="VisuGPX - https://www.visugpx.com">
  <metadata>
    <name>Lioux - Falaise de la Madeleine - Combe de Font Jouvale</name>
    <desc><![CDATA[Lioux - Falaise de la Madeleine - Combe de Font Jouvale.
Balade au départ du vieux moulin de Lioux.]]></desc>
  </metadata>
  <trk>
    <name><![CDATA[9645878-Lioux Falaise Lundi mars 19]]></name>
    <trkseg>
      <trkpt lat="43.93954" lon="5.2917">
        <ele>332</ele>
        <time>2019-03-04T17:18:52Z</time>
      </trkpt>
      <trkpt lat="43.93955" lon="5.29177">
        <ele>332</ele>
        <time>2019-03-04T17:19:52Z</time>
      </trkpt>
      <trkpt lat="43.9396" lon="5.29183">
        <ele>331</ele>
        <time>2019-03-04T17:20:52Z</time>
      </trkpt>
      <trkpt lat="43.93957" lon="5.29183">
        <ele>332</ele>
        <time>2019-03-04T17:21:52Z</time>
      </trkpt>
      <trkpt lat="43.9396" lon="5.29182">
        <ele>331</ele>
        <time>2019-03-04T17:22:52Z</time>
      </trkpt>
      <trkpt lat="43.93958" lon="5.29184">
        <ele>332</ele>
        <time>2019-03-04T17:23:52Z</time>
      </trkpt>
      <trkpt lat="43.93955" lon="5.29179">
        <ele>332</ele>
        <time>2019-03-04T17:24:52Z</time>
      </trkpt>
      <trkpt lat="43.93953" lon="5.2918">
        <ele>333</ele>
        <time>2019-03-04T17:25:52Z</time>
      </trkpt>
      <trkpt lat="43.93953" lon="5.29179">
        <ele>333</ele>
        <time>2019-03-04T17:26:52Z</time>
      </trkpt>
      <trkpt lat="43.93955" lon="5.29186">
        <ele>333</ele>
        <time>2019-03-04T17:27:52Z</time>
      </trkpt>
      <trkpt lat="43.9396" lon="5.29203">
        <ele>333</ele>
        <time>2019-03-04T17:28:52Z</time>
      </trkpt>
      <trkpt lat="43.93967" lon="5.2922">
        <ele>333</ele>
        <time>2019-03-04T17:29:52Z</time>
      </trkpt>
      <trkpt lat="43.9397" lon="5.29246">
        <ele>335</ele>
        <time>2019-03-04T17:30:52Z</time>
      </trkpt>
      <trkpt lat="43.9397" lon="5.29262">
        <ele>337</ele>
        <time>2019-03-04T17:31:52Z</time>
      </trkpt>
      <trkpt lat="43.9397" lon="5.29285">
        <ele>339</ele>
        <time>2019-03-04T17:32:52Z</time>
      </trkpt>
      <trkpt lat="43.93971" lon="5.29306">
        <ele>341</ele>
        <time>2019-03-04T17:33:52Z</time>
      </trkpt>
      <trkpt lat="43.9397" lon="5.29328">
        <ele>344</ele>
        <time>2019-03-04T17:34:52Z</time>
      </trkpt>
      <trkpt lat="43.93967" lon="5.29344">
        <ele>346</ele>
        <time>2019-03-04T17:35:52Z</time>
      </trkpt>
      <trkpt lat="43.93976" lon="5.29381">
        <ele>351</ele>
        <time>2019-03-04T17:36:52Z</time>
      </trkpt>
      <trkpt lat="43.93979" lon="5.294">
        <ele>354</ele>
        <time>2019-03-04T17:37:52Z</time>
      </trkpt>
      <trkpt lat="43.93988" lon="5.29422">
        <ele>358</ele>
        <time>2019-03-04T17:38:52Z</time>
      </trkpt>
      <trkpt lat="43.93994" lon="5.2943">
        <ele>359</ele>
        <time>2019-03-04T17:39:52Z</time>
      </trkpt>
      <trkpt lat="43.94002" lon="5.29448">
        <ele>360</ele>
        <time>2019-03-04T17:40:52Z</time>
      </trkpt>
      <trkpt lat="43.94009" lon="5.29469">
        <ele>362</ele>
        <time>2019-03-04T17:41:52Z</time>
      </trkpt>
      <trkpt lat="43.94018" lon="5.29483">
        <ele>363</ele>
        <time>2019-03-04T17:42:52Z</time>
      </trkpt>
      <trkpt lat="43.94033" lon="5.29489">
        <ele>362</ele>
        <time>2019-03-04T17:43:52Z</time>
      </trkpt>
      <trkpt lat="43.94049" lon="5.29488">
        <ele>360</ele>
        <time>2019-03-04T17:44:52Z</time>
      </trkpt>
      <trkpt lat="43.94066" lon="5.29485">
        <ele>357</ele>
        <time>2019-03-04T17:45:52Z</time>
      </trkpt>
      <trkpt lat="43.94068" lon="5.29483">
        <ele>356</ele>
        <time>2019-03-04T17:46:52Z</time>
      </trkpt>
      <trkpt lat="43.94069" lon="5.29482">
        <ele>355</ele>
        <time>2019-03-04T17:47:52Z</time>
      </trkpt>
      <trkpt lat="43.94068" lon="5.29482">
        <ele>356</ele>
        <time>2019-03-04T17:48:52Z</time>
      </trkpt>
      <trkpt lat="43.94067" lon="5.29481">
        <ele>355</ele>
        <time>2019-03-04T17:49:52Z</time>
      </trkpt>
      <trkpt lat="43.94068" lon="5.29482">
        <ele>356</ele>
        <time>2019-03-04T17:50:52Z</time>
      </trkpt>
      <trkpt lat="43.94067" lon="5.29491">
        <ele>359</ele>
        <time>2019-03-04T17:51:52Z</time>
      </trkpt>
      <trkpt lat="43.9407" lon="5.29512">
        <ele>363</ele>
        <time>2019-03-04T17:52:52Z</time>
      </trkpt>
      <trkpt lat="43.94079" lon="5.29533">
        <ele>366</ele>
        <time>2019-03-04T17:53:52Z</time>
      </trkpt>
      <trkpt lat="43.9409" lon="5.29553">
        <ele>365</ele>
        <time>2019-03-04T17:54:52Z</time>
      </trkpt>
      <trkpt lat="43.94099" lon="5.29568">
        <ele>363</ele>
        <time>2019-03-04T17:55:52Z</time>
      </trkpt>
      <trkpt lat="43.94108" lon="5.29588">
        <ele>362</ele>
        <time>2019-03-04T17:56:52Z</time>
      </trkpt>
      <trkpt lat="43.94118" lon="5.29603">
        <ele>360</ele>
        <time>2019-03-04T17:57:52Z</time>
      </trkpt>
      <trkpt lat="43.94126" lon="5.29623">
        <ele>361</ele>
        <time>2019-03-04T17:58:52Z</time>
      </trkpt>
      <trkpt lat="43.94137" lon="5.29643">
        <ele>363</ele>
        <time>2019-03-04T17:59:52Z</time>
      </trkpt>
      <trkpt lat="43.94145" lon="5.2966">
        <ele>366</ele>
        <time>2019-03-04T18:00:52Z</time>
      </trkpt>
      <trkpt lat="43.94149" lon="5.29681">
        <ele>370</ele>
        <time>2019-03-04T18:01:52Z</time>
      </trkpt>
      <trkpt lat="43.94157" lon="5.29701">
        <ele>374</ele>
        <time>2019-03-04T18:02:52Z</time>
      </trkpt>
      <trkpt lat="43.94168" lon="5.29713">
        <ele>376</ele>
        <time>2019-03-04T18:03:52Z</time>
      </trkpt>
      <trkpt lat="43.9418" lon="5.29724">
        <ele>374</ele>
        <time>2019-03-04T18:04:52Z</time>
      </trkpt>
      <trkpt lat="43.94189" lon="5.29741">
        <ele>376</ele>
        <time>2019-03-04T18:05:52Z</time>
      </trkpt>
      <trkpt lat="43.942" lon="5.29757">
        <ele>377</ele>
        <time>2019-03-04T18:06:52Z</time>
      </trkpt>
      <trkpt lat="43.94215" lon="5.29773">
        <ele>377</ele>
        <time>2019-03-04T18:07:52Z</time>
      </trkpt>
      <trkpt lat="43.94227" lon="5.29785">
        <ele>378</ele>
        <time>2019-03-04T18:08:52Z</time>
      </trkpt>
      <trkpt lat="43.94239" lon="5.29804">
        <ele>383</ele>
        <time>2019-03-04T18:09:52Z</time>
      </trkpt>
      <trkpt lat="43.94249" lon="5.29821">
        <ele>388</ele>
        <time>2019-03-04T18:10:52Z</time>
      </trkpt>
      <trkpt lat="43.94273" lon="5.29847">
        <ele>386</ele>
        <time>2019-03-04T18:11:52Z</time>
      </trkpt>
      <trkpt lat="43.94276" lon="5.29851">
        <ele>385</ele>
        <time>2019-03-04T18:12:52Z</time>
      </trkpt>
      <trkpt lat="43.94277" lon="5.29847">
        <ele>384</ele>
        <time>2019-03-04T18:13:52Z</time>
      </trkpt>
      <trkpt lat="43.94288" lon="5.29857">
        <ele>383</ele>
        <time>2019-03-04T18:14:52Z</time>
      </trkpt>
      <trkpt lat="43.94297" lon="5.29867">
        <ele>383</ele>
        <time>2019-03-04T18:15:52Z</time>
      </trkpt>
      <trkpt lat="43.94304" lon="5.29881">
        <ele>386</ele>
        <time>2019-03-04T18:16:52Z</time>
      </trkpt>
      <trkpt lat="43.94315" lon="5.29899">
        <ele>391</ele>
        <time>2019-03-04T18:17:52Z</time>
      </trkpt>
      <trkpt lat="43.94329" lon="5.29909">
        <ele>394</ele>
        <time>2019-03-04T18:18:52Z</time>
      </trkpt>
      <trkpt lat="43.94345" lon="5.29918">
        <ele>392</ele>
        <time>2019-03-04T18:19:52Z</time>
      </trkpt>
      <trkpt lat="43.94356" lon="5.29935">
        <ele>389</ele>
        <time>2019-03-04T18:20:52Z</time>
      </trkpt>
      <trkpt lat="43.94364" lon="5.29953">
        <ele>390</ele>
        <time>2019-03-04T18:21:52Z</time>
      </trkpt>
      <trkpt lat="43.94372" lon="5.29966">
        <ele>391</ele>
        <time>2019-03-04T18:22:52Z</time>
      </trkpt>
      <trkpt lat="43.94385" lon="5.29977">
        <ele>391</ele>
        <time>2019-03-04T18:23:52Z</time>
      </trkpt>
      <trkpt lat="43.94397" lon="5.29995">
        <ele>396</ele>
        <time>2019-03-04T18:24:52Z</time>
      </trkpt>
      <trkpt lat="43.94406" lon="5.30008">
        <ele>399</ele>
        <time>2019-03-04T18:25:52Z</time>
      </trkpt>
      <trkpt lat="43.94411" lon="5.30017">
        <ele>400</ele>
        <time>2019-03-04T18:26:52Z</time>
      </trkpt>
      <trkpt lat="43.94418" lon="5.30018">
        <ele>399</ele>
        <time>2019-03-04T18:27:52Z</time>
      </trkpt>
      <trkpt lat="43.94415" lon="5.30021">
        <ele>401</ele>
        <time>2019-03-04T18:28:52Z</time>
      </trkpt>
      <trkpt lat="43.94416" lon="5.30025">
        <ele>402</ele>
        <time>2019-03-04T18:29:52Z</time>
      </trkpt>
      <trkpt lat="43.94415" lon="5.30028">
        <ele>403</ele>
        <time>2019-03-04T18:30:52Z</time>
      </trkpt>
      <trkpt lat="43.94414" lon="5.3003">
        <ele>403</ele>
        <time>2019-03-04T18:31:52Z</time>
      </trkpt>
      <trkpt lat="43.94416" lon="5.30029">
        <ele>403</ele>
        <time>2019-03-04T18:32:52Z</time>
      </trkpt>
      <trkpt lat="43.94427" lon="5.30033">
        <ele>398</ele>
        <time>2019-03-04T18:33:52Z</time>
      </trkpt>
      <trkpt lat="43.94437" lon="5.30051">
        <ele>401</ele>
        <time>2019-03-04T18:34:52Z</time>
      </trkpt>
      <trkpt lat="43.94449" lon="5.30065">
        <ele>402</ele>
        <time>2019-03-04T18:35:52Z</time>
      </trkpt>
      <trkpt lat="43.9446" lon="5.30075">
        <ele>405</ele>
        <time>2019-03-04T18:36:52Z</time>
      </trkpt>
      <trkpt lat="43.94472" lon="5.30078">
        <ele>404</ele>
        <time>2019-03-04T18:37:52Z</time>
      </trkpt>
      <trkpt lat="43.94479" lon="5.30085">
        <ele>406</ele>
        <time>2019-03-04T18:38:52Z</time>
      </trkpt>
      <trkpt lat="43.94481" lon="5.30088">
        <ele>407</ele>
        <time>2019-03-04T18:39:52Z</time>
      </trkpt>
      <trkpt lat="43.9448" lon="5.30088">
        <ele>407</ele>
        <time>2019-03-04T18:40:52Z</time>
      </trkpt>
      <trkpt lat="43.9448" lon="5.30088">
        <ele>407</ele>
        <time>2019-03-04T18:41:52Z</time>
      </trkpt>
      <trkpt lat="43.9448" lon="5.30088">
        <ele>407</ele>
        <time>2019-03-04T18:42:52Z</time>
      </trkpt>
      <trkpt lat="43.94476" lon="5.30088">
        <ele>407</ele>
        <time>2019-03-04T18:43:52Z</time>
      </trkpt>
      <trkpt lat="43.94476" lon="5.30089">
        <ele>408</ele>
        <time>2019-03-04T18:44:52Z</time>
      </trkpt>
      <trkpt lat="43.94477" lon="5.30089">
        <ele>407</ele>
        <time>2019-03-04T18:45:52Z</time>
      </trkpt>
      <trkpt lat="43.94478" lon="5.3009">
        <ele>407</ele>
        <time>2019-03-04T18:46:52Z</time>
      </trkpt>
      <trkpt lat="43.94477" lon="5.30089">
        <ele>407</ele>
        <time>2019-03-04T18:47:52Z</time>
      </trkpt>
      <trkpt lat="43.94476" lon="5.30089">
        <ele>408</ele>
        <time>2019-03-04T18:48:52Z</time>
      </trkpt>
      <trkpt lat="43.94478" lon="5.30088">
        <ele>407</ele>
        <time>2019-03-04T18:49:52Z</time>
      </trkpt>
      <trkpt lat="43.94479" lon="5.30088">
        <ele>407</ele>
        <time>2019-03-04T18:50:52Z</time>
      </trkpt>
      <trkpt lat="43.94482" lon="5.30094">
        <ele>408</ele>
        <time>2019-03-04T18:51:52Z</time>
      </trkpt>
      <trkpt lat="43.9449" lon="5.30104">
        <ele>409</ele>
        <time>2019-03-04T18:52:52Z</time>
      </trkpt>
      <trkpt lat="43.9449" lon="5.30105">
        <ele>410</ele>
        <time>2019-03-04T18:53:52Z</time>
      </trkpt>
      <trkpt lat="43.94496" lon="5.30121">
        <ele>414</ele>
        <time>2019-03-04T18:54:52Z</time>
      </trkpt>
      <trkpt lat="43.94501" lon="5.3013">
        <ele>416</ele>
        <time>2019-03-04T18:55:52Z</time>
      </trkpt>
      <trkpt lat="43.94509" lon="5.30139">
        <ele>415</ele>
        <time>2019-03-04T18:56:52Z</time>
      </trkpt>
      <trkpt lat="43.94515" lon="5.3016">
        <ele>420</ele>
        <time>2019-03-04T18:57:52Z</time>
      </trkpt>
      <trkpt lat="43.94524" lon="5.30168">
        <ele>419</ele>
        <time>2019-03-04T18:58:52Z</time>
      </trkpt>
      <trkpt lat="43.94537" lon="5.3018">
        <ele>416</ele>
        <time>2019-03-04T18:59:52Z</time>
      </trkpt>
      <trkpt lat="43.94546" lon="5.30197">
        <ele>417</ele>
        <time>2019-03-04T19:00:52Z</time>
      </trkpt>
      <trkpt lat="43.94555" lon="5.30208">
        <ele>418</ele>
        <time>2019-03-04T19:01:52Z</time>
      </trkpt>
      <trkpt lat="43.94567" lon="5.30222">
        <ele>419</ele>
        <time>2019-03-04T19:02:52Z</time>
      </trkpt>
      <trkpt lat="43.94573" lon="5.30233">
        <ele>422</ele>
        <time>2019-03-04T19:03:52Z</time>
      </trkpt>
      <trkpt lat="43.94584" lon="5.30248">
        <ele>426</ele>
        <time>2019-03-04T19:04:52Z</time>
      </trkpt>
      <trkpt lat="43.94591" lon="5.30255">
        <ele>424</ele>
        <time>2019-03-04T19:05:52Z</time>
      </trkpt>
      <trkpt lat="43.94601" lon="5.30266">
        <ele>421</ele>
        <time>2019-03-04T19:06:52Z</time>
      </trkpt>
      <trkpt lat="43.94609" lon="5.30283">
        <ele>422</ele>
        <time>2019-03-04T19:07:52Z</time>
      </trkpt>
      <trkpt lat="43.94622" lon="5.30294">
        <ele>422</ele>
        <time>2019-03-04T19:08:52Z</time>
      </trkpt>
      <trkpt lat="43.94637" lon="5.30315">
        <ele>427</ele>
        <time>2019-03-04T19:09:52Z</time>
      </trkpt>
      <trkpt lat="43.94659" lon="5.30337">
        <ele>434</ele>
        <time>2019-03-04T19:10:52Z</time>
      </trkpt>
      <trkpt lat="43.94664" lon="5.30353">
        <ele>437</ele>
        <time>2019-03-04T19:11:52Z</time>
      </trkpt>
      <trkpt lat="43.94685" lon="5.30372">
        <ele>431</ele>
        <time>2019-03-04T19:12:52Z</time>
      </trkpt>
      <trkpt lat="43.94694" lon="5.3039">
        <ele>433</ele>
        <time>2019-03-04T19:13:52Z</time>
      </trkpt>
      <trkpt lat="43.94709" lon="5.30402">
        <ele>432</ele>
        <time>2019-03-04T19:14:52Z</time>
      </trkpt>
      <trkpt lat="43.94721" lon="5.30412">
        <ele>433</ele>
        <time>2019-03-04T19:15:52Z</time>
      </trkpt>
      <trkpt lat="43.94737" lon="5.30428">
        <ele>434</ele>
        <time>2019-03-04T19:16:52Z</time>
      </trkpt>
      <trkpt lat="43.9475" lon="5.30442">
        <ele>436</ele>
        <time>2019-03-04T19:17:52Z</time>
      </trkpt>
      <trkpt lat="43.94776" lon="5.30465">
        <ele>429</ele>
        <time>2019-03-04T19:18:52Z</time>
      </trkpt>
      <trkpt lat="43.94787" lon="5.30478">
        <ele>428</ele>
        <time>2019-03-04T19:19:52Z</time>
      </trkpt>
      <trkpt lat="43.94796" lon="5.30506">
        <ele>433</ele>
        <time>2019-03-04T19:20:52Z</time>
      </trkpt>
      <trkpt lat="43.94798" lon="5.30523">
        <ele>437</ele>
        <time>2019-03-04T19:21:52Z</time>
      </trkpt>
      <trkpt lat="43.94796" lon="5.30523">
        <ele>437</ele>
        <time>2019-03-04T19:22:52Z</time>
      </trkpt>
      <trkpt lat="43.94799" lon="5.30522">
        <ele>436</ele>
        <time>2019-03-04T19:23:52Z</time>
      </trkpt>
      <trkpt lat="43.94799" lon="5.30522">
        <ele>436</ele>
        <time>2019-03-04T19:24:52Z</time>
      </trkpt>
      <trkpt lat="43.94798" lon="5.30521">
        <ele>436</ele>
        <time>2019-03-04T19:25:52Z</time>
      </trkpt>
      <trkpt lat="43.94802" lon="5.30528">
        <ele>437</ele>
        <time>2019-03-04T19:26:52Z</time>
      </trkpt>
      <trkpt lat="43.94805" lon="5.30535">
        <ele>437</ele>
        <time>2019-03-04T19:27:52Z</time>
      </trkpt>
      <trkpt lat="43.94808" lon="5.30557">
        <ele>443</ele>
        <time>2019-03-04T19:28:52Z</time>
      </trkpt>
      <trkpt lat="43.94811" lon="5.30576">
        <ele>449</ele>
        <time>2019-03-04T19:29:52Z</time>
      </trkpt>
      <trkpt lat="43.94814" lon="5.30599">
        <ele>453</ele>
        <time>2019-03-04T19:30:52Z</time>
      </trkpt>
      <trkpt lat="43.94824" lon="5.3062">
        <ele>454</ele>
        <time>2019-03-04T19:31:52Z</time>
      </trkpt>
      <trkpt lat="43.94832" lon="5.30642">
        <ele>457</ele>
        <time>2019-03-04T19:32:52Z</time>
      </trkpt>
      <trkpt lat="43.94836" lon="5.30648">
        <ele>457</ele>
        <time>2019-03-04T19:33:52Z</time>
      </trkpt>
      <trkpt lat="43.94842" lon="5.30669">
        <ele>457</ele>
        <time>2019-03-04T19:34:52Z</time>
      </trkpt>
      <trkpt lat="43.94852" lon="5.30691">
        <ele>455</ele>
        <time>2019-03-04T19:35:52Z</time>
      </trkpt>
      <trkpt lat="43.94863" lon="5.30711">
        <ele>453</ele>
        <time>2019-03-04T19:36:52Z</time>
      </trkpt>
      <trkpt lat="43.94866" lon="5.3073">
        <ele>455</ele>
        <time>2019-03-04T19:37:52Z</time>
      </trkpt>
      <trkpt lat="43.94879" lon="5.30748">
        <ele>454</ele>
        <time>2019-03-04T19:38:52Z</time>
      </trkpt>
      <trkpt lat="43.94889" lon="5.30763">
        <ele>453</ele>
        <time>2019-03-04T19:39:52Z</time>
      </trkpt>
      <trkpt lat="43.94892" lon="5.30777">
        <ele>453</ele>
        <time>2019-03-04T19:40:52Z</time>
      </trkpt>
      <trkpt lat="43.94895" lon="5.30814">
        <ele>458</ele>
        <time>2019-03-04T19:41:52Z</time>
      </trkpt>
      <trkpt lat="43.94898" lon="5.30833">
        <ele>460</ele>
        <time>2019-03-04T19:42:52Z</time>
      </trkpt>
      <trkpt lat="43.94902" lon="5.3084">
        <ele>460</ele>
        <time>2019-03-04T19:43:52Z</time>
      </trkpt>
      <trkpt lat="43.94905" lon="5.30845">
        <ele>460</ele>
        <time>2019-03-04T19:44:52Z</time>
      </trkpt>
      <trkpt lat="43.94907" lon="5.30864">
        <ele>461</ele>
        <time>2019-03-04T19:45:52Z</time>
      </trkpt>
      <trkpt lat="43.94913" lon="5.3088">
        <ele>462</ele>
        <time>2019-03-04T19:46:52Z</time>
      </trkpt>
      <trkpt lat="43.94915" lon="5.30901">
        <ele>464</ele>
        <time>2019-03-04T19:47:52Z</time>
      </trkpt>
      <trkpt lat="43.9492" lon="5.30921">
        <ele>464</ele>
        <time>2019-03-04T19:48:52Z</time>
      </trkpt>
      <trkpt lat="43.94923" lon="5.30943">
        <ele>465</ele>
        <time>2019-03-04T19:49:52Z</time>
      </trkpt>
      <trkpt lat="43.94925" lon="5.30967">
        <ele>467</ele>
        <time>2019-03-04T19:50:52Z</time>
      </trkpt>
      <trkpt lat="43.94936" lon="5.30978">
        <ele>466</ele>
        <time>2019-03-04T19:51:52Z</time>
      </trkpt>
      <trkpt lat="43.94938" lon="5.30983">
        <ele>466</ele>
        <time>2019-03-04T19:52:52Z</time>
      </trkpt>
      <trkpt lat="43.94938" lon="5.30981">
        <ele>466</ele>
        <time>2019-03-04T19:53:52Z</time>
      </trkpt>
      <trkpt lat="43.94939" lon="5.3098">
        <ele>465</ele>
        <time>2019-03-04T19:54:52Z</time>
      </trkpt>
      <trkpt lat="43.94939" lon="5.30979">
        <ele>465</ele>
        <time>2019-03-04T19:55:52Z</time>
      </trkpt>
      <trkpt lat="43.9494" lon="5.3098">
        <ele>465</ele>
        <time>2019-03-04T19:56:52Z</time>
      </trkpt>
      <trkpt lat="43.94943" lon="5.30987">
        <ele>466</ele>
        <time>2019-03-04T19:57:52Z</time>
      </trkpt>
      <trkpt lat="43.94947" lon="5.30999">
        <ele>466</ele>
        <time>2019-03-04T19:58:52Z</time>
      </trkpt>
      <trkpt lat="43.94973" lon="5.31016">
        <ele>466</ele>
        <time>2019-03-04T19:59:52Z</time>
      </trkpt>
      <trkpt lat="43.94987" lon="5.31025">
        <ele>467</ele>
        <time>2019-03-04T20:00:52Z</time>
      </trkpt>
      <trkpt lat="43.94992" lon="5.3104">
        <ele>470</ele>
        <time>2019-03-04T20:01:52Z</time>
      </trkpt>
      <trkpt lat="43.95" lon="5.31059">
        <ele>475</ele>
        <time>2019-03-04T20:02:52Z</time>
      </trkpt>
      <trkpt lat="43.95006" lon="5.3108">
        <ele>480</ele>
        <time>2019-03-04T20:03:52Z</time>
      </trkpt>
      <trkpt lat="43.95013" lon="5.31099">
        <ele>482</ele>
        <time>2019-03-04T20:04:52Z</time>
      </trkpt>
      <trkpt lat="43.95025" lon="5.31115">
        <ele>482</ele>
        <time>2019-03-04T20:05:52Z</time>
      </trkpt>
      <trkpt lat="43.95037" lon="5.31127">
        <ele>482</ele>
        <time>2019-03-04T20:06:52Z</time>
      </trkpt>
      <trkpt lat="43.95053" lon="5.31142">
        <ele>484</ele>
        <time>2019-03-04T20:07:52Z</time>
      </trkpt>
      <trkpt lat="43.95064" lon="5.31161">
        <ele>487</ele>
        <time>2019-03-04T20:08:52Z</time>
      </trkpt>
      <trkpt lat="43.95079" lon="5.31173">
        <ele>489</ele>
        <time>2019-03-04T20:09:52Z</time>
      </trkpt>
      <trkpt lat="43.95089" lon="5.31189">
        <ele>490</ele>
        <time>2019-03-04T20:10:52Z</time>
      </trkpt>
      <trkpt lat="43.951" lon="5.31206">
        <ele>492</ele>
        <time>2019-03-04T20:11:52Z</time>
      </trkpt>
      <trkpt lat="43.95111" lon="5.31216">
        <ele>494</ele>
        <time>2019-03-04T20:12:52Z</time>
      </trkpt>
      <trkpt lat="43.95124" lon="5.31232">
        <ele>496</ele>
        <time>2019-03-04T20:13:52Z</time>
      </trkpt>
      <trkpt lat="43.95133" lon="5.31247">
        <ele>498</ele>
        <time>2019-03-04T20:14:52Z</time>
      </trkpt>
      <trkpt lat="43.9514" lon="5.31252">
        <ele>499</ele>
        <time>2019-03-04T20:15:52Z</time>
      </trkpt>
      <trkpt lat="43.9514" lon="5.31253">
        <ele>499</ele>
        <time>2019-03-04T20:16:52Z</time>
      </trkpt>
      <trkpt lat="43.95142" lon="5.31254">
        <ele>499</ele>
        <time>2019-03-04T20:17:52Z</time>
      </trkpt>
      <trkpt lat="43.95143" lon="5.31254">
        <ele>499</ele>
        <time>2019-03-04T20:18:52Z</time>
      </trkpt>
      <trkpt lat="43.95143" lon="5.31253">
        <ele>499</ele>
        <time>2019-03-04T20:19:52Z</time>
      </trkpt>
      <trkpt lat="43.95142" lon="5.31256">
        <ele>499</ele>
        <time>2019-03-04T20:20:52Z</time>
      </trkpt>
      <trkpt lat="43.95141" lon="5.31255">
        <ele>499</ele>
        <time>2019-03-04T20:21:52Z</time>
      </trkpt>
      <trkpt lat="43.95143" lon="5.31257">
        <ele>499</ele>
        <time>2019-03-04T20:22:52Z</time>
      </trkpt>
      <trkpt lat="43.95153" lon="5.31272">
        <ele>501</ele>
        <time>2019-03-04T20:23:52Z</time>
      </trkpt>
      <trkpt lat="43.95168" lon="5.31288">
        <ele>504</ele>
        <time>2019-03-04T20:24:52Z</time>
      </trkpt>
      <trkpt lat="43.95179" lon="5.31305">
        <ele>506</ele>
        <time>2019-03-04T20:25:52Z</time>
      </trkpt>
      <trkpt lat="43.95195" lon="5.31324">
        <ele>509</ele>
        <time>2019-03-04T20:26:52Z</time>
      </trkpt>
      <trkpt lat="43.95205" lon="5.31333">
        <ele>510</ele>
        <time>2019-03-04T20:27:52Z</time>
      </trkpt>
      <trkpt lat="43.95226" lon="5.31348">
        <ele>512</ele>
        <time>2019-03-04T20:28:52Z</time>
      </trkpt>
      <trkpt lat="43.95237" lon="5.31352">
        <ele>513</ele>
        <time>2019-03-04T20:29:52Z</time>
      </trkpt>
      <trkpt lat="43.95249" lon="5.31355">
        <ele>514</ele>
        <time>2019-03-04T20:30:52Z</time>
      </trkpt>
      <trkpt lat="43.95257" lon="5.31363">
        <ele>515</ele>
        <time>2019-03-04T20:31:52Z</time>
      </trkpt>
      <trkpt lat="43.9526" lon="5.31367">
        <ele>515</ele>
        <time>2019-03-04T20:32:52Z</time>
      </trkpt>
      <trkpt lat="43.95265" lon="5.31384">
        <ele>517</ele>
        <time>2019-03-04T20:33:52Z</time>
      </trkpt>
      <trkpt lat="43.95276" lon="5.31401">
        <ele>520</ele>
        <time>2019-03-04T20:34:52Z</time>
      </trkpt>
      <trkpt lat="43.95288" lon="5.31409">
        <ele>521</ele>
        <time>2019-03-04T20:35:52Z</time>
      </trkpt>
      <trkpt lat="43.95301" lon="5.31424">
        <ele>523</ele>
        <time>2019-03-04T20:36:52Z</time>
      </trkpt>
      <trkpt lat="43.953" lon="5.31443">
        <ele>524</ele>
        <time>2019-03-04T20:37:52Z</time>
      </trkpt>
      <trkpt lat="43.95318" lon="5.31448">
        <ele>525</ele>
        <time>2019-03-04T20:38:52Z</time>
      </trkpt>
      <trkpt lat="43.95321" lon="5.31447">
        <ele>525</ele>
        <time>2019-03-04T20:39:52Z</time>
      </trkpt>
      <trkpt lat="43.95341" lon="5.31448">
        <ele>525</ele>
        <time>2019-03-04T20:40:52Z</time>
      </trkpt>
      <trkpt lat="43.95358" lon="5.31454">
        <ele>525</ele>
        <time>2019-03-04T20:41:52Z</time>
      </trkpt>
      <trkpt lat="43.95374" lon="5.31461">
        <ele>525</ele>
        <time>2019-03-04T20:42:52Z</time>
      </trkpt>
      <trkpt lat="43.95383" lon="5.31478">
        <ele>527</ele>
        <time>2019-03-04T20:43:52Z</time>
      </trkpt>
      <trkpt lat="43.95392" lon="5.31499">
        <ele>530</ele>
        <time>2019-03-04T20:44:52Z</time>
      </trkpt>
      <trkpt lat="43.95402" lon="5.31515">
        <ele>531</ele>
        <time>2019-03-04T20:45:52Z</time>
      </trkpt>
      <trkpt lat="43.95416" lon="5.31536">
        <ele>533</ele>
        <time>2019-03-04T20:46:52Z</time>
      </trkpt>
      <trkpt lat="43.95415" lon="5.31537">
        <ele>533</ele>
        <time>2019-03-04T20:47:52Z</time>
      </trkpt>
      <trkpt lat="43.95416" lon="5.31536">
        <ele>533</ele>
        <time>2019-03-04T20:48:52Z</time>
      </trkpt>
      <trkpt lat="43.95416" lon="5.31536">
        <ele>533</ele>
        <time>2019-03-04T20:49:52Z</time>
      </trkpt>
      <trkpt lat="43.95417" lon="5.31538">
        <ele>534</ele>
        <time>2019-03-04T20:50:52Z</time>
      </trkpt>
      <trkpt lat="43.95431" lon="5.31553">
        <ele>534</ele>
        <time>2019-03-04T20:51:52Z</time>
      </trkpt>
      <trkpt lat="43.9543" lon="5.31558">
        <ele>534</ele>
        <time>2019-03-04T20:52:52Z</time>
      </trkpt>
      <trkpt lat="43.95432" lon="5.31572">
        <ele>535</ele>
        <time>2019-03-04T20:53:52Z</time>
      </trkpt>
      <trkpt lat="43.95437" lon="5.31592">
        <ele>536</ele>
        <time>2019-03-04T20:54:52Z</time>
      </trkpt>
      <trkpt lat="43.95448" lon="5.31609">
        <ele>536</ele>
        <time>2019-03-04T20:55:52Z</time>
      </trkpt>
      <trkpt lat="43.95461" lon="5.31626">
        <ele>537</ele>
        <time>2019-03-04T20:56:52Z</time>
      </trkpt>
      <trkpt lat="43.95492" lon="5.3166">
        <ele>541</ele>
        <time>2019-03-04T20:57:52Z</time>
      </trkpt>
      <trkpt lat="43.95502" lon="5.31683">
        <ele>542</ele>
        <time>2019-03-04T20:58:52Z</time>
      </trkpt>
      <trkpt lat="43.95518" lon="5.31687">
        <ele>540</ele>
        <time>2019-03-04T20:59:52Z</time>
      </trkpt>
      <trkpt lat="43.95531" lon="5.31699">
        <ele>539</ele>
        <time>2019-03-04T21:00:52Z</time>
      </trkpt>
      <trkpt lat="43.95547" lon="5.31712">
        <ele>538</ele>
        <time>2019-03-04T21:01:52Z</time>
      </trkpt>
      <trkpt lat="43.9556" lon="5.31715">
        <ele>537</ele>
        <time>2019-03-04T21:02:52Z</time>
      </trkpt>
      <trkpt lat="43.9556" lon="5.31715">
        <ele>537</ele>
        <time>2019-03-04T21:03:52Z</time>
      </trkpt>
      <trkpt lat="43.95561" lon="5.31714">
        <ele>536</ele>
        <time>2019-03-04T21:04:52Z</time>
      </trkpt>
      <trkpt lat="43.95559" lon="5.31713">
        <ele>537</ele>
        <time>2019-03-04T21:05:52Z</time>
      </trkpt>
      <trkpt lat="43.95557" lon="5.31715">
        <ele>537</ele>
        <time>2019-03-04T21:06:52Z</time>
      </trkpt>
      <trkpt lat="43.95559" lon="5.31713">
        <ele>537</ele>
        <time>2019-03-04T21:07:52Z</time>
      </trkpt>
      <trkpt lat="43.95559" lon="5.31714">
        <ele>537</ele>
        <time>2019-03-04T21:08:52Z</time>
      </trkpt>
      <trkpt lat="43.95561" lon="5.31716">
        <ele>537</ele>
        <time>2019-03-04T21:09:52Z</time>
      </trkpt>
      <trkpt lat="43.9556" lon="5.31732">
        <ele>539</ele>
        <time>2019-03-04T21:10:52Z</time>
      </trkpt>
      <trkpt lat="43.95568" lon="5.31763">
        <ele>542</ele>
        <time>2019-03-04T21:11:52Z</time>
      </trkpt>
      <trkpt lat="43.95574" lon="5.31779">
        <ele>544</ele>
        <time>2019-03-04T21:12:52Z</time>
      </trkpt>
      <trkpt lat="43.95581" lon="5.31798">
        <ele>546</ele>
        <time>2019-03-04T21:13:52Z</time>
      </trkpt>
      <trkpt lat="43.95593" lon="5.3181">
        <ele>545</ele>
        <time>2019-03-04T21:14:52Z</time>
      </trkpt>
      <trkpt lat="43.95606" lon="5.31832">
        <ele>544</ele>
        <time>2019-03-04T21:15:52Z</time>
      </trkpt>
      <trkpt lat="43.9561" lon="5.31847">
        <ele>544</ele>
        <time>2019-03-04T21:16:52Z</time>
      </trkpt>
      <trkpt lat="43.9561" lon="5.31868">
        <ele>545</ele>
        <time>2019-03-04T21:17:52Z</time>
      </trkpt>
      <trkpt lat="43.95616" lon="5.31883">
        <ele>545</ele>
        <time>2019-03-04T21:18:52Z</time>
      </trkpt>
      <trkpt lat="43.95628" lon="5.31898">
        <ele>545</ele>
        <time>2019-03-04T21:19:52Z</time>
      </trkpt>
      <trkpt lat="43.95643" lon="5.31912">
        <ele>545</ele>
        <time>2019-03-04T21:20:52Z</time>
      </trkpt>
      <trkpt lat="43.95656" lon="5.31925">
        <ele>545</ele>
        <time>2019-03-04T21:21:52Z</time>
      </trkpt>
      <trkpt lat="43.95658" lon="5.31947">
        <ele>547</ele>
        <time>2019-03-04T21:22:52Z</time>
      </trkpt>
      <trkpt lat="43.95663" lon="5.31967">
        <ele>549</ele>
        <time>2019-03-04T21:23:52Z</time>
      </trkpt>
      <trkpt lat="43.95663" lon="5.31968">
        <ele>549</ele>
        <time>2019-03-04T21:24:52Z</time>
      </trkpt>
      <trkpt lat="43.95669" lon="5.31986">
        <ele>550</ele>
        <time>2019-03-04T21:25:52Z</time>
      </trkpt>
      <trkpt lat="43.95674" lon="5.32">
        <ele>549</ele>
        <time>2019-03-04T21:26:52Z</time>
      </trkpt>
      <trkpt lat="43.95682" lon="5.32027">
        <ele>548</ele>
        <time>2019-03-04T21:27:52Z</time>
      </trkpt>
      <trkpt lat="43.95694" lon="5.32065">
        <ele>546</ele>
        <time>2019-03-04T21:28:52Z</time>
      </trkpt>
      <trkpt lat="43.95701" lon="5.32086">
        <ele>546</ele>
        <time>2019-03-04T21:29:52Z</time>
      </trkpt>
      <trkpt lat="43.95699" lon="5.32103">
        <ele>547</ele>
        <time>2019-03-04T21:30:52Z</time>
      </trkpt>
      <trkpt lat="43.95692" lon="5.32127">
        <ele>550</ele>
        <time>2019-03-04T21:31:52Z</time>
      </trkpt>
      <trkpt lat="43.95697" lon="5.32153">
        <ele>549</ele>
        <time>2019-03-04T21:32:52Z</time>
      </trkpt>
      <trkpt lat="43.95699" lon="5.32176">
        <ele>549</ele>
        <time>2019-03-04T21:33:52Z</time>
      </trkpt>
      <trkpt lat="43.95705" lon="5.32197">
        <ele>548</ele>
        <time>2019-03-04T21:34:52Z</time>
      </trkpt>
      <trkpt lat="43.95709" lon="5.32219">
        <ele>547</ele>
        <time>2019-03-04T21:35:52Z</time>
      </trkpt>
      <trkpt lat="43.95715" lon="5.32249">
        <ele>546</ele>
        <time>2019-03-04T21:36:52Z</time>
      </trkpt>
      <trkpt lat="43.95713" lon="5.32296">
        <ele>549</ele>
        <time>2019-03-04T21:37:52Z</time>
      </trkpt>
      <trkpt lat="43.95715" lon="5.32296">
        <ele>549</ele>
        <time>2019-03-04T21:38:52Z</time>
      </trkpt>
      <trkpt lat="43.95715" lon="5.32296">
        <ele>549</ele>
        <time>2019-03-04T21:39:52Z</time>
      </trkpt>
      <trkpt lat="43.95713" lon="5.32294">
        <ele>549</ele>
        <time>2019-03-04T21:40:52Z</time>
      </trkpt>
      <trkpt lat="43.95712" lon="5.32295">
        <ele>549</ele>
        <time>2019-03-04T21:41:52Z</time>
      </trkpt>
      <trkpt lat="43.95709" lon="5.323">
        <ele>550</ele>
        <time>2019-03-04T21:42:52Z</time>
      </trkpt>
      <trkpt lat="43.95715" lon="5.32301">
        <ele>549</ele>
        <time>2019-03-04T21:43:52Z</time>
      </trkpt>
      <trkpt lat="43.95721" lon="5.32341">
        <ele>549</ele>
        <time>2019-03-04T21:44:52Z</time>
      </trkpt>
      <trkpt lat="43.95723" lon="5.3236">
        <ele>550</ele>
        <time>2019-03-04T21:45:52Z</time>
      </trkpt>
      <trkpt lat="43.95723" lon="5.3238">
        <ele>551</ele>
        <time>2019-03-04T21:46:52Z</time>
      </trkpt>
      <trkpt lat="43.95727" lon="5.32401">
        <ele>551</ele>
        <time>2019-03-04T21:47:52Z</time>
      </trkpt>
      <trkpt lat="43.95727" lon="5.32424">
        <ele>552</ele>
        <time>2019-03-04T21:48:52Z</time>
      </trkpt>
      <trkpt lat="43.95732" lon="5.32442">
        <ele>553</ele>
        <time>2019-03-04T21:49:52Z</time>
      </trkpt>
      <trkpt lat="43.95731" lon="5.32464">
        <ele>555</ele>
        <time>2019-03-04T21:50:52Z</time>
      </trkpt>
      <trkpt lat="43.95738" lon="5.32498">
        <ele>558</ele>
        <time>2019-03-04T21:51:52Z</time>
      </trkpt>
      <trkpt lat="43.9574" lon="5.32499">
        <ele>558</ele>
        <time>2019-03-04T21:52:52Z</time>
      </trkpt>
      <trkpt lat="43.9575" lon="5.32512">
        <ele>559</ele>
        <time>2019-03-04T21:53:52Z</time>
      </trkpt>
      <trkpt lat="43.95759" lon="5.3252">
        <ele>556</ele>
        <time>2019-03-04T21:54:52Z</time>
      </trkpt>
      <trkpt lat="43.95767" lon="5.32535">
        <ele>554</ele>
        <time>2019-03-04T21:55:52Z</time>
      </trkpt>
      <trkpt lat="43.9578" lon="5.32543">
        <ele>550</ele>
        <time>2019-03-04T21:56:52Z</time>
      </trkpt>
      <trkpt lat="43.95786" lon="5.32554">
        <ele>550</ele>
        <time>2019-03-04T21:57:52Z</time>
      </trkpt>
      <trkpt lat="43.95795" lon="5.32564">
        <ele>549</ele>
        <time>2019-03-04T21:58:52Z</time>
      </trkpt>
      <trkpt lat="43.95797" lon="5.3258">
        <ele>551</ele>
        <time>2019-03-04T21:59:52Z</time>
      </trkpt>
      <trkpt lat="43.95804" lon="5.32596">
        <ele>553</ele>
        <time>2019-03-04T22:00:52Z</time>
      </trkpt>
      <trkpt lat="43.95815" lon="5.32612">
        <ele>554</ele>
        <time>2019-03-04T22:01:52Z</time>
      </trkpt>
      <trkpt lat="43.95827" lon="5.3263">
        <ele>556</ele>
        <time>2019-03-04T22:02:52Z</time>
      </trkpt>
      <trkpt lat="43.95833" lon="5.32647">
        <ele>560</ele>
        <time>2019-03-04T22:03:52Z</time>
      </trkpt>
      <trkpt lat="43.95841" lon="5.32661">
        <ele>560</ele>
        <time>2019-03-04T22:04:52Z</time>
      </trkpt>
      <trkpt lat="43.95852" lon="5.32672">
        <ele>556</ele>
        <time>2019-03-04T22:05:52Z</time>
      </trkpt>
      <trkpt lat="43.95857" lon="5.32689">
        <ele>555</ele>
        <time>2019-03-04T22:06:52Z</time>
      </trkpt>
      <trkpt lat="43.95861" lon="5.32709">
        <ele>555</ele>
        <time>2019-03-04T22:07:52Z</time>
      </trkpt>
      <trkpt lat="43.95867" lon="5.32727">
        <ele>555</ele>
        <time>2019-03-04T22:08:52Z</time>
      </trkpt>
      <trkpt lat="43.95877" lon="5.32744">
        <ele>552</ele>
        <time>2019-03-04T22:09:52Z</time>
      </trkpt>
      <trkpt lat="43.95884" lon="5.32761">
        <ele>550</ele>
        <time>2019-03-04T22:10:52Z</time>
      </trkpt>
      <trkpt lat="43.95879" lon="5.32783">
        <ele>553</ele>
        <time>2019-03-04T22:11:52Z</time>
      </trkpt>
      <trkpt lat="43.95876" lon="5.32793">
        <ele>554</ele>
        <time>2019-03-04T22:12:52Z</time>
      </trkpt>
      <trkpt lat="43.95878" lon="5.32815">
        <ele>554</ele>
        <time>2019-03-04T22:13:52Z</time>
      </trkpt>
      <trkpt lat="43.9588" lon="5.32835">
        <ele>554</ele>
        <time>2019-03-04T22:14:52Z</time>
      </trkpt>
      <trkpt lat="43.9588" lon="5.32844">
        <ele>554</ele>
        <time>2019-03-04T22:15:52Z</time>
      </trkpt>
      <trkpt lat="43.95882" lon="5.32859">
        <ele>554</ele>
        <time>2019-03-04T22:16:52Z</time>
      </trkpt>
      <trkpt lat="43.95874" lon="5.32878">
        <ele>556</ele>
        <time>2019-03-04T22:17:52Z</time>
      </trkpt>
      <trkpt lat="43.95881" lon="5.32904">
        <ele>555</ele>
        <time>2019-03-04T22:18:52Z</time>
      </trkpt>
      <trkpt lat="43.9588" lon="5.3292">
        <ele>556</ele>
        <time>2019-03-04T22:19:52Z</time>
      </trkpt>
      <trkpt lat="43.9589" lon="5.32933">
        <ele>555</ele>
        <time>2019-03-04T22:20:52Z</time>
      </trkpt>
      <trkpt lat="43.95898" lon="5.32964">
        <ele>555</ele>
        <time>2019-03-04T22:21:52Z</time>
      </trkpt>
      <trkpt lat="43.95898" lon="5.32991">
        <ele>557</ele>
        <time>2019-03-04T22:22:52Z</time>
      </trkpt>
      <trkpt lat="43.95907" lon="5.3304">
        <ele>559</ele>
        <time>2019-03-04T22:23:52Z</time>
      </trkpt>
      <trkpt lat="43.95906" lon="5.33069">
        <ele>561</ele>
        <time>2019-03-04T22:24:52Z</time>
      </trkpt>
      <trkpt lat="43.95916" lon="5.33093">
        <ele>561</ele>
        <time>2019-03-04T22:25:52Z</time>
      </trkpt>
      <trkpt lat="43.95925" lon="5.33141">
        <ele>560</ele>
        <time>2019-03-04T22:26:52Z</time>
      </trkpt>
      <trkpt lat="43.95928" lon="5.33151">
        <ele>560</ele>
        <time>2019-03-04T22:27:52Z</time>
      </trkpt>
      <trkpt lat="43.95933" lon="5.33169">
        <ele>558</ele>
        <time>2019-03-04T22:28:52Z</time>
      </trkpt>
      <trkpt lat="43.95934" lon="5.33183">
        <ele>556</ele>
        <time>2019-03-04T22:29:52Z</time>
      </trkpt>
      <trkpt lat="43.95933" lon="5.33184">
        <ele>557</ele>
        <time>2019-03-04T22:30:52Z</time>
      </trkpt>
      <trkpt lat="43.95933" lon="5.33186">
        <ele>556</ele>
        <time>2019-03-04T22:31:52Z</time>
      </trkpt>
      <trkpt lat="43.95926" lon="5.33194">
        <ele>558</ele>
        <time>2019-03-04T22:32:52Z</time>
      </trkpt>
      <trkpt lat="43.95923" lon="5.33196">
        <ele>559</ele>
        <time>2019-03-04T22:33:52Z</time>
      </trkpt>
      <trkpt lat="43.95914" lon="5.33209">
        <ele>560</ele>
        <time>2019-03-04T22:34:52Z</time>
      </trkpt>
      <trkpt lat="43.95905" lon="5.33222">
        <ele>559</ele>
        <time>2019-03-04T22:35:52Z</time>
      </trkpt>
      <trkpt lat="43.95889" lon="5.33231">
        <ele>558</ele>
        <time>2019-03-04T22:36:52Z</time>
      </trkpt>
      <trkpt lat="43.95877" lon="5.33239">
        <ele>557</ele>
        <time>2019-03-04T22:37:52Z</time>
      </trkpt>
      <trkpt lat="43.95864" lon="5.33251">
        <ele>556</ele>
        <time>2019-03-04T22:38:52Z</time>
      </trkpt>
      <trkpt lat="43.95852" lon="5.33267">
        <ele>552</ele>
        <time>2019-03-04T22:39:52Z</time>
      </trkpt>
      <trkpt lat="43.95845" lon="5.3328">
        <ele>549</ele>
        <time>2019-03-04T22:40:52Z</time>
      </trkpt>
      <trkpt lat="43.95847" lon="5.33283">
        <ele>548</ele>
        <time>2019-03-04T22:41:52Z</time>
      </trkpt>
      <trkpt lat="43.95848" lon="5.33283">
        <ele>548</ele>
        <time>2019-03-04T22:42:52Z</time>
      </trkpt>
      <trkpt lat="43.95848" lon="5.33282">
        <ele>548</ele>
        <time>2019-03-04T22:43:52Z</time>
      </trkpt>
      <trkpt lat="43.95837" lon="5.33289">
        <ele>547</ele>
        <time>2019-03-04T22:44:52Z</time>
      </trkpt>
      <trkpt lat="43.95821" lon="5.3329">
        <ele>547</ele>
        <time>2019-03-04T22:45:52Z</time>
      </trkpt>
      <trkpt lat="43.95805" lon="5.33299">
        <ele>545</ele>
        <time>2019-03-04T22:46:52Z</time>
      </trkpt>
      <trkpt lat="43.95797" lon="5.33304">
        <ele>544</ele>
        <time>2019-03-04T22:47:52Z</time>
      </trkpt>
      <trkpt lat="43.95791" lon="5.3332">
        <ele>542</ele>
        <time>2019-03-04T22:48:52Z</time>
      </trkpt>
      <trkpt lat="43.95771" lon="5.33333">
        <ele>542</ele>
        <time>2019-03-04T22:49:52Z</time>
      </trkpt>
      <trkpt lat="43.95755" lon="5.33343">
        <ele>541</ele>
        <time>2019-03-04T22:50:52Z</time>
      </trkpt>
      <trkpt lat="43.95748" lon="5.33357">
        <ele>538</ele>
        <time>2019-03-04T22:51:52Z</time>
      </trkpt>
      <trkpt lat="43.95744" lon="5.33365">
        <ele>536</ele>
        <time>2019-03-04T22:52:52Z</time>
      </trkpt>
      <trkpt lat="43.95744" lon="5.33365">
        <ele>536</ele>
        <time>2019-03-04T22:53:52Z</time>
      </trkpt>
      <trkpt lat="43.95755" lon="5.33367">
        <ele>535</ele>
        <time>2019-03-04T22:54:52Z</time>
      </trkpt>
      <trkpt lat="43.9576" lon="5.33365">
        <ele>535</ele>
        <time>2019-03-04T22:55:52Z</time>
      </trkpt>
      <trkpt lat="43.95777" lon="5.3336">
        <ele>534</ele>
        <time>2019-03-04T22:56:52Z</time>
      </trkpt>
      <trkpt lat="43.95791" lon="5.33354">
        <ele>534</ele>
        <time>2019-03-04T22:57:52Z</time>
      </trkpt>
      <trkpt lat="43.958" lon="5.33351">
        <ele>534</ele>
        <time>2019-03-04T22:58:52Z</time>
      </trkpt>
      <trkpt lat="43.95807" lon="5.33351">
        <ele>533</ele>
        <time>2019-03-04T22:59:52Z</time>
      </trkpt>
      <trkpt lat="43.95824" lon="5.33349">
        <ele>532</ele>
        <time>2019-03-04T23:00:52Z</time>
      </trkpt>
      <trkpt lat="43.95833" lon="5.33349">
        <ele>531</ele>
        <time>2019-03-04T23:01:52Z</time>
      </trkpt>
      <trkpt lat="43.95853" lon="5.33353">
        <ele>527</ele>
        <time>2019-03-04T23:02:52Z</time>
      </trkpt>
      <trkpt lat="43.95908" lon="5.33346">
        <ele>521</ele>
        <time>2019-03-04T23:03:52Z</time>
      </trkpt>
      <trkpt lat="43.9593" lon="5.33342">
        <ele>519</ele>
        <time>2019-03-04T23:04:52Z</time>
      </trkpt>
      <trkpt lat="43.95951" lon="5.33334">
        <ele>518</ele>
        <time>2019-03-04T23:05:52Z</time>
      </trkpt>
      <trkpt lat="43.95966" lon="5.33325">
        <ele>517</ele>
        <time>2019-03-04T23:06:52Z</time>
      </trkpt>
      <trkpt lat="43.95988" lon="5.33318">
        <ele>514</ele>
        <time>2019-03-04T23:07:52Z</time>
      </trkpt>
      <trkpt lat="43.96008" lon="5.33309">
        <ele>511</ele>
        <time>2019-03-04T23:08:52Z</time>
      </trkpt>
      <trkpt lat="43.96025" lon="5.33293">
        <ele>509</ele>
        <time>2019-03-04T23:09:52Z</time>
      </trkpt>
      <trkpt lat="43.96038" lon="5.3327">
        <ele>509</ele>
        <time>2019-03-04T23:10:52Z</time>
      </trkpt>
      <trkpt lat="43.96042" lon="5.33259">
        <ele>509</ele>
        <time>2019-03-04T23:11:52Z</time>
      </trkpt>
      <trkpt lat="43.96045" lon="5.33234">
        <ele>510</ele>
        <time>2019-03-04T23:12:52Z</time>
      </trkpt>
      <trkpt lat="43.96046" lon="5.33226">
        <ele>509</ele>
        <time>2019-03-04T23:13:52Z</time>
      </trkpt>
      <trkpt lat="43.96045" lon="5.33208">
        <ele>510</ele>
        <time>2019-03-04T23:14:52Z</time>
      </trkpt>
      <trkpt lat="43.96047" lon="5.33201">
        <ele>509</ele>
        <time>2019-03-04T23:15:52Z</time>
      </trkpt>
      <trkpt lat="43.96048" lon="5.33199">
        <ele>508</ele>
        <time>2019-03-04T23:16:52Z</time>
      </trkpt>
      <trkpt lat="43.96052" lon="5.33208">
        <ele>507</ele>
        <time>2019-03-04T23:17:52Z</time>
      </trkpt>
      <trkpt lat="43.96056" lon="5.33232">
        <ele>505</ele>
        <time>2019-03-04T23:18:52Z</time>
      </trkpt>
      <trkpt lat="43.9606" lon="5.33241">
        <ele>504</ele>
        <time>2019-03-04T23:19:52Z</time>
      </trkpt>
      <trkpt lat="43.96065" lon="5.33261">
        <ele>501</ele>
        <time>2019-03-04T23:20:52Z</time>
      </trkpt>
      <trkpt lat="43.96073" lon="5.33268">
        <ele>497</ele>
        <time>2019-03-04T23:21:52Z</time>
      </trkpt>
      <trkpt lat="43.96077" lon="5.33253">
        <ele>498</ele>
        <time>2019-03-04T23:22:52Z</time>
      </trkpt>
      <trkpt lat="43.96083" lon="5.33255">
        <ele>496</ele>
        <time>2019-03-04T23:23:52Z</time>
      </trkpt>
      <trkpt lat="43.96078" lon="5.33276">
        <ele>495</ele>
        <time>2019-03-04T23:24:52Z</time>
      </trkpt>
      <trkpt lat="43.96072" lon="5.33305">
        <ele>493</ele>
        <time>2019-03-04T23:25:52Z</time>
      </trkpt>
      <trkpt lat="43.96072" lon="5.3333">
        <ele>489</ele>
        <time>2019-03-04T23:26:52Z</time>
      </trkpt>
      <trkpt lat="43.96074" lon="5.33337">
        <ele>487</ele>
        <time>2019-03-04T23:27:52Z</time>
      </trkpt>
      <trkpt lat="43.96087" lon="5.33326">
        <ele>486</ele>
        <time>2019-03-04T23:28:52Z</time>
      </trkpt>
      <trkpt lat="43.96096" lon="5.33318">
        <ele>484</ele>
        <time>2019-03-04T23:29:52Z</time>
      </trkpt>
      <trkpt lat="43.96099" lon="5.3333">
        <ele>481</ele>
        <time>2019-03-04T23:30:52Z</time>
      </trkpt>
      <trkpt lat="43.96105" lon="5.33336">
        <ele>478</ele>
        <time>2019-03-04T23:31:52Z</time>
      </trkpt>
      <trkpt lat="43.96106" lon="5.33355">
        <ele>473</ele>
        <time>2019-03-04T23:32:52Z</time>
      </trkpt>
      <trkpt lat="43.96105" lon="5.33364">
        <ele>471</ele>
        <time>2019-03-04T23:33:52Z</time>
      </trkpt>
      <trkpt lat="43.96103" lon="5.33385">
        <ele>466</ele>
        <time>2019-03-04T23:34:52Z</time>
      </trkpt>
      <trkpt lat="43.96109" lon="5.33385">
        <ele>465</ele>
        <time>2019-03-04T23:35:52Z</time>
      </trkpt>
      <trkpt lat="43.96115" lon="5.33388">
        <ele>462</ele>
        <time>2019-03-04T23:36:52Z</time>
      </trkpt>
      <trkpt lat="43.96117" lon="5.33399">
        <ele>459</ele>
        <time>2019-03-04T23:37:52Z</time>
      </trkpt>
      <trkpt lat="43.96117" lon="5.3341">
        <ele>456</ele>
        <time>2019-03-04T23:38:52Z</time>
      </trkpt>
      <trkpt lat="43.96124" lon="5.33415">
        <ele>453</ele>
        <time>2019-03-04T23:39:52Z</time>
      </trkpt>
      <trkpt lat="43.96132" lon="5.33417">
        <ele>451</ele>
        <time>2019-03-04T23:40:52Z</time>
      </trkpt>
      <trkpt lat="43.96135" lon="5.33421">
        <ele>448</ele>
        <time>2019-03-04T23:41:52Z</time>
      </trkpt>
      <trkpt lat="43.96144" lon="5.33426">
        <ele>445</ele>
        <time>2019-03-04T23:42:52Z</time>
      </trkpt>
      <trkpt lat="43.96152" lon="5.33434">
        <ele>440</ele>
        <time>2019-03-04T23:43:52Z</time>
      </trkpt>
      <trkpt lat="43.9616" lon="5.33439">
        <ele>436</ele>
        <time>2019-03-04T23:44:52Z</time>
      </trkpt>
      <trkpt lat="43.96169" lon="5.3344">
        <ele>434</ele>
        <time>2019-03-04T23:45:52Z</time>
      </trkpt>
      <trkpt lat="43.96173" lon="5.33446">
        <ele>432</ele>
        <time>2019-03-04T23:46:52Z</time>
      </trkpt>
      <trkpt lat="43.96162" lon="5.33447">
        <ele>433</ele>
        <time>2019-03-04T23:47:52Z</time>
      </trkpt>
      <trkpt lat="43.96154" lon="5.33449">
        <ele>434</ele>
        <time>2019-03-04T23:48:52Z</time>
      </trkpt>
      <trkpt lat="43.96162" lon="5.33444">
        <ele>434</ele>
        <time>2019-03-04T23:49:52Z</time>
      </trkpt>
      <trkpt lat="43.96166" lon="5.3344">
        <ele>435</ele>
        <time>2019-03-04T23:50:52Z</time>
      </trkpt>
      <trkpt lat="43.9617" lon="5.33438">
        <ele>435</ele>
        <time>2019-03-04T23:51:52Z</time>
      </trkpt>
      <trkpt lat="43.96173" lon="5.33437">
        <ele>435</ele>
        <time>2019-03-04T23:52:52Z</time>
      </trkpt>
      <trkpt lat="43.96174" lon="5.33436">
        <ele>435</ele>
        <time>2019-03-04T23:53:52Z</time>
      </trkpt>
      <trkpt lat="43.96173" lon="5.33432">
        <ele>437</ele>
        <time>2019-03-04T23:54:52Z</time>
      </trkpt>
      <trkpt lat="43.96172" lon="5.33431">
        <ele>437</ele>
        <time>2019-03-04T23:55:52Z</time>
      </trkpt>
      <trkpt lat="43.96166" lon="5.33434">
        <ele>437</ele>
        <time>2019-03-04T23:56:52Z</time>
      </trkpt>
      <trkpt lat="43.9617" lon="5.33433">
        <ele>436</ele>
        <time>2019-03-04T23:57:52Z</time>
      </trkpt>
      <trkpt lat="43.96174" lon="5.33433">
        <ele>436</ele>
        <time>2019-03-04T23:58:52Z</time>
      </trkpt>
      <trkpt lat="43.96194" lon="5.33438">
        <ele>434</ele>
        <time>2019-03-04T23:59:52Z</time>
      </trkpt>
      <trkpt lat="43.96204" lon="5.33439">
        <ele>433</ele>
        <time>2019-03-05T00:00:52Z</time>
      </trkpt>
      <trkpt lat="43.96201" lon="5.33437">
        <ele>433</ele>
        <time>2019-03-05T00:01:52Z</time>
      </trkpt>
      <trkpt lat="43.962" lon="5.33435">
        <ele>434</ele>
        <time>2019-03-05T00:02:52Z</time>
      </trkpt>
      <trkpt lat="43.96202" lon="5.33434">
        <ele>434</ele>
        <time>2019-03-05T00:03:52Z</time>
      </trkpt>
      <trkpt lat="43.962" lon="5.33437">
        <ele>433</ele>
        <time>2019-03-05T00:04:52Z</time>
      </trkpt>
      <trkpt lat="43.96199" lon="5.33435">
        <ele>434</ele>
        <time>2019-03-05T00:05:52Z</time>
      </trkpt>
      <trkpt lat="43.96201" lon="5.3343">
        <ele>435</ele>
        <time>2019-03-05T00:06:52Z</time>
      </trkpt>
      <trkpt lat="43.962" lon="5.33429">
        <ele>436</ele>
        <time>2019-03-05T00:07:52Z</time>
      </trkpt>
      <trkpt lat="43.96201" lon="5.3343">
        <ele>435</ele>
        <time>2019-03-05T00:08:52Z</time>
      </trkpt>
      <trkpt lat="43.96201" lon="5.3343">
        <ele>435</ele>
        <time>2019-03-05T00:09:52Z</time>
      </trkpt>
      <trkpt lat="43.962" lon="5.3343">
        <ele>435</ele>
        <time>2019-03-05T00:10:52Z</time>
      </trkpt>
      <trkpt lat="43.96198" lon="5.3343">
        <ele>436</ele>
        <time>2019-03-05T00:11:52Z</time>
      </trkpt>
      <trkpt lat="43.96199" lon="5.33431">
        <ele>435</ele>
        <time>2019-03-05T00:12:52Z</time>
      </trkpt>
      <trkpt lat="43.96196" lon="5.33433">
        <ele>435</ele>
        <time>2019-03-05T00:13:52Z</time>
      </trkpt>
      <trkpt lat="43.96198" lon="5.33431">
        <ele>435</ele>
        <time>2019-03-05T00:14:52Z</time>
      </trkpt>
      <trkpt lat="43.96198" lon="5.33429">
        <ele>436</ele>
        <time>2019-03-05T00:15:52Z</time>
      </trkpt>
      <trkpt lat="43.962" lon="5.33429">
        <ele>436</ele>
        <time>2019-03-05T00:16:52Z</time>
      </trkpt>
      <trkpt lat="43.96195" lon="5.33429">
        <ele>436</ele>
        <time>2019-03-05T00:17:52Z</time>
      </trkpt>
      <trkpt lat="43.96198" lon="5.33423">
        <ele>438</ele>
        <time>2019-03-05T00:18:52Z</time>
      </trkpt>
      <trkpt lat="43.962" lon="5.33425">
        <ele>437</ele>
        <time>2019-03-05T00:19:52Z</time>
      </trkpt>
      <trkpt lat="43.96203" lon="5.33416">
        <ele>439</ele>
        <time>2019-03-05T00:20:52Z</time>
      </trkpt>
      <trkpt lat="43.96203" lon="5.33404">
        <ele>441</ele>
        <time>2019-03-05T00:21:52Z</time>
      </trkpt>
      <trkpt lat="43.96204" lon="5.33402">
        <ele>441</ele>
        <time>2019-03-05T00:22:52Z</time>
      </trkpt>
      <trkpt lat="43.96202" lon="5.3341">
        <ele>440</ele>
        <time>2019-03-05T00:23:52Z</time>
      </trkpt>
      <trkpt lat="43.96196" lon="5.33419">
        <ele>439</ele>
        <time>2019-03-05T00:24:52Z</time>
      </trkpt>
      <trkpt lat="43.96194" lon="5.33422">
        <ele>438</ele>
        <time>2019-03-05T00:25:52Z</time>
      </trkpt>
      <trkpt lat="43.96194" lon="5.33426">
        <ele>437</ele>
        <time>2019-03-05T00:26:52Z</time>
      </trkpt>
      <trkpt lat="43.96197" lon="5.33427">
        <ele>437</ele>
        <time>2019-03-05T00:27:52Z</time>
      </trkpt>
      <trkpt lat="43.96198" lon="5.3343">
        <ele>436</ele>
        <time>2019-03-05T00:28:52Z</time>
      </trkpt>
      <trkpt lat="43.96196" lon="5.3343">
        <ele>436</ele>
        <time>2019-03-05T00:29:52Z</time>
      </trkpt>
      <trkpt lat="43.96198" lon="5.33431">
        <ele>435</ele>
        <time>2019-03-05T00:30:52Z</time>
      </trkpt>
      <trkpt lat="43.96196" lon="5.33431">
        <ele>435</ele>
        <time>2019-03-05T00:31:52Z</time>
      </trkpt>
      <trkpt lat="43.96197" lon="5.33432">
        <ele>435</ele>
        <time>2019-03-05T00:32:52Z</time>
      </trkpt>
      <trkpt lat="43.96197" lon="5.3343">
        <ele>436</ele>
        <time>2019-03-05T00:33:52Z</time>
      </trkpt>
      <trkpt lat="43.96194" lon="5.33433">
        <ele>435</ele>
        <time>2019-03-05T00:34:52Z</time>
      </trkpt>
      <trkpt lat="43.96192" lon="5.33434">
        <ele>435</ele>
        <time>2019-03-05T00:35:52Z</time>
      </trkpt>
      <trkpt lat="43.96197" lon="5.33431">
        <ele>435</ele>
        <time>2019-03-05T00:36:52Z</time>
      </trkpt>
      <trkpt lat="43.96198" lon="5.33431">
        <ele>435</ele>
        <time>2019-03-05T00:37:52Z</time>
      </trkpt>
      <trkpt lat="43.96199" lon="5.33431">
        <ele>435</ele>
        <time>2019-03-05T00:38:52Z</time>
      </trkpt>
      <trkpt lat="43.96197" lon="5.33434">
        <ele>435</ele>
        <time>2019-03-05T00:39:52Z</time>
      </trkpt>
      <trkpt lat="43.96196" lon="5.33434">
        <ele>435</ele>
        <time>2019-03-05T00:40:52Z</time>
      </trkpt>
      <trkpt lat="43.96195" lon="5.33435">
        <ele>434</ele>
        <time>2019-03-05T00:41:52Z</time>
      </trkpt>
      <trkpt lat="43.96197" lon="5.33431">
        <ele>435</ele>
        <time>2019-03-05T00:42:52Z</time>
      </trkpt>
      <trkpt lat="43.96196" lon="5.33432">
        <ele>435</ele>
        <time>2019-03-05T00:43:52Z</time>
      </trkpt>
      <trkpt lat="43.96198" lon="5.33432">
        <ele>435</ele>
        <time>2019-03-05T00:44:52Z</time>
      </trkpt>
      <trkpt lat="43.96198" lon="5.33434">
        <ele>434</ele>
        <time>2019-03-05T00:45:52Z</time>
      </trkpt>
      <trkpt lat="43.96199" lon="5.3343">
        <ele>436</ele>
        <time>2019-03-05T00:46:52Z</time>
      </trkpt>
      <trkpt lat="43.962" lon="5.33425">
        <ele>437</ele>
        <time>2019-03-05T00:47:52Z</time>
      </trkpt>
      <trkpt lat="43.96201" lon="5.33426">
        <ele>437</ele>
        <time>2019-03-05T00:48:52Z</time>
      </trkpt>
      <trkpt lat="43.96199" lon="5.3343">
        <ele>436</ele>
        <time>2019-03-05T00:49:52Z</time>
      </trkpt>
      <trkpt lat="43.96199" lon="5.3343">
        <ele>436</ele>
        <time>2019-03-05T00:50:52Z</time>
      </trkpt>
      <trkpt lat="43.96201" lon="5.33431">
        <ele>435</ele>
        <time>2019-03-05T00:51:52Z</time>
      </trkpt>
      <trkpt lat="43.962" lon="5.33431">
        <ele>435</ele>
        <time>2019-03-05T00:52:52Z</time>
      </trkpt>
      <trkpt lat="43.96198" lon="5.33431">
        <ele>435</ele>
        <time>2019-03-05T00:53:52Z</time>
      </trkpt>
      <trkpt lat="43.96198" lon="5.33429">
        <ele>436</ele>
        <time>2019-03-05T00:54:52Z</time>
      </trkpt>
      <trkpt lat="43.962" lon="5.3343">
        <ele>435</ele>
        <time>2019-03-05T00:55:52Z</time>
      </trkpt>
      <trkpt lat="43.96199" lon="5.33432">
        <ele>435</ele>
        <time>2019-03-05T00:56:52Z</time>
      </trkpt>
      <trkpt lat="43.962" lon="5.33434">
        <ele>434</ele>
        <time>2019-03-05T00:57:52Z</time>
      </trkpt>
      <trkpt lat="43.96201" lon="5.33435">
        <ele>434</ele>
        <time>2019-03-05T00:58:52Z</time>
      </trkpt>
      <trkpt lat="43.96202" lon="5.33434">
        <ele>434</ele>
        <time>2019-03-05T00:59:52Z</time>
      </trkpt>
      <trkpt lat="43.96201" lon="5.33436">
        <ele>434</ele>
        <time>2019-03-05T01:00:52Z</time>
      </trkpt>
      <trkpt lat="43.96201" lon="5.33438">
        <ele>433</ele>
        <time>2019-03-05T01:01:52Z</time>
      </trkpt>
      <trkpt lat="43.962" lon="5.33437">
        <ele>433</ele>
        <time>2019-03-05T01:02:52Z</time>
      </trkpt>
      <trkpt lat="43.96186" lon="5.33433">
        <ele>435</ele>
        <time>2019-03-05T01:03:52Z</time>
      </trkpt>
      <trkpt lat="43.96169" lon="5.33433">
        <ele>437</ele>
        <time>2019-03-05T01:04:52Z</time>
      </trkpt>
      <trkpt lat="43.96168" lon="5.3344">
        <ele>434</ele>
        <time>2019-03-05T01:05:52Z</time>
      </trkpt>
      <trkpt lat="43.96169" lon="5.33444">
        <ele>433</ele>
        <time>2019-03-05T01:06:52Z</time>
      </trkpt>
      <trkpt lat="43.96157" lon="5.33447">
        <ele>434</ele>
        <time>2019-03-05T01:07:52Z</time>
      </trkpt>
      <trkpt lat="43.96146" lon="5.33455">
        <ele>434</ele>
        <time>2019-03-05T01:08:52Z</time>
      </trkpt>
      <trkpt lat="43.96136" lon="5.33476">
        <ele>429</ele>
        <time>2019-03-05T01:09:52Z</time>
      </trkpt>
      <trkpt lat="43.96131" lon="5.33485">
        <ele>427</ele>
        <time>2019-03-05T01:10:52Z</time>
      </trkpt>
      <trkpt lat="43.96137" lon="5.33488">
        <ele>425</ele>
        <time>2019-03-05T01:11:52Z</time>
      </trkpt>
      <trkpt lat="43.96153" lon="5.33484">
        <ele>423</ele>
        <time>2019-03-05T01:12:52Z</time>
      </trkpt>
      <trkpt lat="43.96145" lon="5.33494">
        <ele>421</ele>
        <time>2019-03-05T01:13:52Z</time>
      </trkpt>
      <trkpt lat="43.96133" lon="5.3351">
        <ele>417</ele>
        <time>2019-03-05T01:14:52Z</time>
      </trkpt>
      <trkpt lat="43.96117" lon="5.33526">
        <ele>414</ele>
        <time>2019-03-05T01:15:52Z</time>
      </trkpt>
      <trkpt lat="43.96104" lon="5.33541">
        <ele>409</ele>
        <time>2019-03-05T01:16:52Z</time>
      </trkpt>
      <trkpt lat="43.9609" lon="5.33556">
        <ele>405</ele>
        <time>2019-03-05T01:17:52Z</time>
      </trkpt>
      <trkpt lat="43.96076" lon="5.33567">
        <ele>401</ele>
        <time>2019-03-05T01:18:52Z</time>
      </trkpt>
      <trkpt lat="43.9606" lon="5.3358">
        <ele>398</ele>
        <time>2019-03-05T01:19:52Z</time>
      </trkpt>
      <trkpt lat="43.96044" lon="5.33591">
        <ele>397</ele>
        <time>2019-03-05T01:20:52Z</time>
      </trkpt>
      <trkpt lat="43.96037" lon="5.336">
        <ele>396</ele>
        <time>2019-03-05T01:21:52Z</time>
      </trkpt>
      <trkpt lat="43.96043" lon="5.33602">
        <ele>395</ele>
        <time>2019-03-05T01:22:52Z</time>
      </trkpt>
      <trkpt lat="43.96048" lon="5.33601">
        <ele>395</ele>
        <time>2019-03-05T01:23:52Z</time>
      </trkpt>
      <trkpt lat="43.96057" lon="5.33604">
        <ele>393</ele>
        <time>2019-03-05T01:24:52Z</time>
      </trkpt>
      <trkpt lat="43.96029" lon="5.33616">
        <ele>393</ele>
        <time>2019-03-05T01:25:52Z</time>
      </trkpt>
      <trkpt lat="43.96017" lon="5.33627">
        <ele>391</ele>
        <time>2019-03-05T01:26:52Z</time>
      </trkpt>
      <trkpt lat="43.96006" lon="5.33628">
        <ele>392</ele>
        <time>2019-03-05T01:27:52Z</time>
      </trkpt>
      <trkpt lat="43.95988" lon="5.33634">
        <ele>391</ele>
        <time>2019-03-05T01:28:52Z</time>
      </trkpt>
      <trkpt lat="43.95969" lon="5.3364">
        <ele>389</ele>
        <time>2019-03-05T01:29:52Z</time>
      </trkpt>
      <trkpt lat="43.95938" lon="5.33656">
        <ele>385</ele>
        <time>2019-03-05T01:30:52Z</time>
      </trkpt>
      <trkpt lat="43.95936" lon="5.33657">
        <ele>384</ele>
        <time>2019-03-05T01:31:52Z</time>
      </trkpt>
      <trkpt lat="43.95921" lon="5.33667">
        <ele>381</ele>
        <time>2019-03-05T01:32:52Z</time>
      </trkpt>
      <trkpt lat="43.95917" lon="5.33671">
        <ele>381</ele>
        <time>2019-03-05T01:33:52Z</time>
      </trkpt>
      <trkpt lat="43.95915" lon="5.33682">
        <ele>383</ele>
        <time>2019-03-05T01:34:52Z</time>
      </trkpt>
      <trkpt lat="43.95915" lon="5.33691">
        <ele>383</ele>
        <time>2019-03-05T01:35:52Z</time>
      </trkpt>
      <trkpt lat="43.95918" lon="5.33695">
        <ele>384</ele>
        <time>2019-03-05T01:36:52Z</time>
      </trkpt>
      <trkpt lat="43.95913" lon="5.33703">
        <ele>384</ele>
        <time>2019-03-05T01:37:52Z</time>
      </trkpt>
      <trkpt lat="43.95897" lon="5.33706">
        <ele>384</ele>
        <time>2019-03-05T01:38:52Z</time>
      </trkpt>
      <trkpt lat="43.95879" lon="5.3371">
        <ele>383</ele>
        <time>2019-03-05T01:39:52Z</time>
      </trkpt>
      <trkpt lat="43.95864" lon="5.33717">
        <ele>381</ele>
        <time>2019-03-05T01:40:52Z</time>
      </trkpt>
      <trkpt lat="43.95852" lon="5.33725">
        <ele>378</ele>
        <time>2019-03-05T01:41:52Z</time>
      </trkpt>
      <trkpt lat="43.95835" lon="5.33732">
        <ele>375</ele>
        <time>2019-03-05T01:42:52Z</time>
      </trkpt>
      <trkpt lat="43.95829" lon="5.33737">
        <ele>373</ele>
        <time>2019-03-05T01:43:52Z</time>
      </trkpt>
      <trkpt lat="43.95814" lon="5.33743">
        <ele>373</ele>
        <time>2019-03-05T01:44:52Z</time>
      </trkpt>
      <trkpt lat="43.95795" lon="5.33752">
        <ele>372</ele>
        <time>2019-03-05T01:45:52Z</time>
      </trkpt>
      <trkpt lat="43.95788" lon="5.33759">
        <ele>372</ele>
        <time>2019-03-05T01:46:52Z</time>
      </trkpt>
      <trkpt lat="43.95772" lon="5.33772">
        <ele>372</ele>
        <time>2019-03-05T01:47:52Z</time>
      </trkpt>
      <trkpt lat="43.95757" lon="5.33786">
        <ele>371</ele>
        <time>2019-03-05T01:48:52Z</time>
      </trkpt>
      <trkpt lat="43.95735" lon="5.33794">
        <ele>370</ele>
        <time>2019-03-05T01:49:52Z</time>
      </trkpt>
      <trkpt lat="43.9572" lon="5.33803">
        <ele>370</ele>
        <time>2019-03-05T01:50:52Z</time>
      </trkpt>
      <trkpt lat="43.95701" lon="5.33813">
        <ele>369</ele>
        <time>2019-03-05T01:51:52Z</time>
      </trkpt>
      <trkpt lat="43.95685" lon="5.33829">
        <ele>367</ele>
        <time>2019-03-05T01:52:52Z</time>
      </trkpt>
      <trkpt lat="43.95658" lon="5.3386">
        <ele>367</ele>
        <time>2019-03-05T01:53:52Z</time>
      </trkpt>
      <trkpt lat="43.95655" lon="5.33862">
        <ele>367</ele>
        <time>2019-03-05T01:54:52Z</time>
      </trkpt>
      <trkpt lat="43.95639" lon="5.33868">
        <ele>367</ele>
        <time>2019-03-05T01:55:52Z</time>
      </trkpt>
      <trkpt lat="43.95637" lon="5.33871">
        <ele>367</ele>
        <time>2019-03-05T01:56:52Z</time>
      </trkpt>
      <trkpt lat="43.95636" lon="5.33871">
        <ele>367</ele>
        <time>2019-03-05T01:57:52Z</time>
      </trkpt>
      <trkpt lat="43.95635" lon="5.33871">
        <ele>367</ele>
        <time>2019-03-05T01:58:52Z</time>
      </trkpt>
      <trkpt lat="43.95635" lon="5.33875">
        <ele>367</ele>
        <time>2019-03-05T01:59:52Z</time>
      </trkpt>
      <trkpt lat="43.95634" lon="5.33874">
        <ele>367</ele>
        <time>2019-03-05T02:00:52Z</time>
      </trkpt>
      <trkpt lat="43.95636" lon="5.3387">
        <ele>367</ele>
        <time>2019-03-05T02:01:52Z</time>
      </trkpt>
      <trkpt lat="43.95627" lon="5.33871">
        <ele>368</ele>
        <time>2019-03-05T02:02:52Z</time>
      </trkpt>
      <trkpt lat="43.9562" lon="5.33879">
        <ele>367</ele>
        <time>2019-03-05T02:03:52Z</time>
      </trkpt>
      <trkpt lat="43.95606" lon="5.33897">
        <ele>364</ele>
        <time>2019-03-05T02:04:52Z</time>
      </trkpt>
      <trkpt lat="43.95603" lon="5.33899">
        <ele>364</ele>
        <time>2019-03-05T02:05:52Z</time>
      </trkpt>
      <trkpt lat="43.956" lon="5.33903">
        <ele>363</ele>
        <time>2019-03-05T02:06:52Z</time>
      </trkpt>
      <trkpt lat="43.95587" lon="5.33918">
        <ele>359</ele>
        <time>2019-03-05T02:07:52Z</time>
      </trkpt>
      <trkpt lat="43.95572" lon="5.3393">
        <ele>360</ele>
        <time>2019-03-05T02:08:52Z</time>
      </trkpt>
      <trkpt lat="43.95557" lon="5.33948">
        <ele>360</ele>
        <time>2019-03-05T02:09:52Z</time>
      </trkpt>
      <trkpt lat="43.95544" lon="5.33966">
        <ele>359</ele>
        <time>2019-03-05T02:10:52Z</time>
      </trkpt>
      <trkpt lat="43.9552" lon="5.33973">
        <ele>357</ele>
        <time>2019-03-05T02:11:52Z</time>
      </trkpt>
      <trkpt lat="43.95504" lon="5.33957">
        <ele>356</ele>
        <time>2019-03-05T02:12:52Z</time>
      </trkpt>
      <trkpt lat="43.95503" lon="5.33956">
        <ele>356</ele>
        <time>2019-03-05T02:13:52Z</time>
      </trkpt>
      <trkpt lat="43.95481" lon="5.33959">
        <ele>357</ele>
        <time>2019-03-05T02:14:52Z</time>
      </trkpt>
      <trkpt lat="43.95462" lon="5.33956">
        <ele>358</ele>
        <time>2019-03-05T02:15:52Z</time>
      </trkpt>
      <trkpt lat="43.95442" lon="5.3396">
        <ele>359</ele>
        <time>2019-03-05T02:16:52Z</time>
      </trkpt>
      <trkpt lat="43.95421" lon="5.33968">
        <ele>359</ele>
        <time>2019-03-05T02:17:52Z</time>
      </trkpt>
      <trkpt lat="43.95417" lon="5.33968">
        <ele>359</ele>
        <time>2019-03-05T02:18:52Z</time>
      </trkpt>
      <trkpt lat="43.95399" lon="5.33968">
        <ele>358</ele>
        <time>2019-03-05T02:19:52Z</time>
      </trkpt>
      <trkpt lat="43.95382" lon="5.33965">
        <ele>357</ele>
        <time>2019-03-05T02:20:52Z</time>
      </trkpt>
      <trkpt lat="43.95357" lon="5.33956">
        <ele>356</ele>
        <time>2019-03-05T02:21:52Z</time>
      </trkpt>
      <trkpt lat="43.95354" lon="5.33959">
        <ele>356</ele>
        <time>2019-03-05T02:22:52Z</time>
      </trkpt>
      <trkpt lat="43.95357" lon="5.33958">
        <ele>356</ele>
        <time>2019-03-05T02:23:52Z</time>
      </trkpt>
      <trkpt lat="43.95363" lon="5.33962">
        <ele>356</ele>
        <time>2019-03-05T02:24:52Z</time>
      </trkpt>
      <trkpt lat="43.95362" lon="5.33958">
        <ele>357</ele>
        <time>2019-03-05T02:25:52Z</time>
      </trkpt>
      <trkpt lat="43.95357" lon="5.33956">
        <ele>356</ele>
        <time>2019-03-05T02:26:52Z</time>
      </trkpt>
      <trkpt lat="43.9533" lon="5.33946">
        <ele>355</ele>
        <time>2019-03-05T02:27:52Z</time>
      </trkpt>
      <trkpt lat="43.95317" lon="5.33935">
        <ele>355</ele>
        <time>2019-03-05T02:28:52Z</time>
      </trkpt>
      <trkpt lat="43.95313" lon="5.33932">
        <ele>355</ele>
        <time>2019-03-05T02:29:52Z</time>
      </trkpt>
      <trkpt lat="43.95301" lon="5.33919">
        <ele>353</ele>
        <time>2019-03-05T02:30:52Z</time>
      </trkpt>
      <trkpt lat="43.95287" lon="5.33902">
        <ele>353</ele>
        <time>2019-03-05T02:31:52Z</time>
      </trkpt>
      <trkpt lat="43.95258" lon="5.3387">
        <ele>350</ele>
        <time>2019-03-05T02:32:52Z</time>
      </trkpt>
      <trkpt lat="43.95243" lon="5.33853">
        <ele>348</ele>
        <time>2019-03-05T02:33:52Z</time>
      </trkpt>
      <trkpt lat="43.95233" lon="5.33843">
        <ele>347</ele>
        <time>2019-03-05T02:34:52Z</time>
      </trkpt>
      <trkpt lat="43.95217" lon="5.33827">
        <ele>347</ele>
        <time>2019-03-05T02:35:52Z</time>
      </trkpt>
      <trkpt lat="43.9519" lon="5.33803">
        <ele>350</ele>
        <time>2019-03-05T02:36:52Z</time>
      </trkpt>
      <trkpt lat="43.95185" lon="5.33781">
        <ele>352</ele>
        <time>2019-03-05T02:37:52Z</time>
      </trkpt>
      <trkpt lat="43.95165" lon="5.33772">
        <ele>350</ele>
        <time>2019-03-05T02:38:52Z</time>
      </trkpt>
      <trkpt lat="43.95145" lon="5.33768">
        <ele>349</ele>
        <time>2019-03-05T02:39:52Z</time>
      </trkpt>
      <trkpt lat="43.95118" lon="5.33766">
        <ele>348</ele>
        <time>2019-03-05T02:40:52Z</time>
      </trkpt>
      <trkpt lat="43.951" lon="5.3376">
        <ele>347</ele>
        <time>2019-03-05T02:41:52Z</time>
      </trkpt>
      <trkpt lat="43.95076" lon="5.33757">
        <ele>346</ele>
        <time>2019-03-05T02:42:52Z</time>
      </trkpt>
      <trkpt lat="43.95058" lon="5.33753">
        <ele>347</ele>
        <time>2019-03-05T02:43:52Z</time>
      </trkpt>
      <trkpt lat="43.9504" lon="5.33758">
        <ele>346</ele>
        <time>2019-03-05T02:44:52Z</time>
      </trkpt>
      <trkpt lat="43.95034" lon="5.33761">
        <ele>346</ele>
        <time>2019-03-05T02:45:52Z</time>
      </trkpt>
      <trkpt lat="43.95016" lon="5.33772">
        <ele>344</ele>
        <time>2019-03-05T02:46:52Z</time>
      </trkpt>
      <trkpt lat="43.9498" lon="5.33789">
        <ele>344</ele>
        <time>2019-03-05T02:47:52Z</time>
      </trkpt>
      <trkpt lat="43.94961" lon="5.33798">
        <ele>344</ele>
        <time>2019-03-05T02:48:52Z</time>
      </trkpt>
      <trkpt lat="43.94944" lon="5.33808">
        <ele>343</ele>
        <time>2019-03-05T02:49:52Z</time>
      </trkpt>
      <trkpt lat="43.94925" lon="5.33818">
        <ele>341</ele>
        <time>2019-03-05T02:50:52Z</time>
      </trkpt>
      <trkpt lat="43.94906" lon="5.33829">
        <ele>340</ele>
        <time>2019-03-05T02:51:52Z</time>
      </trkpt>
      <trkpt lat="43.94892" lon="5.33846">
        <ele>341</ele>
        <time>2019-03-05T02:52:52Z</time>
      </trkpt>
      <trkpt lat="43.94875" lon="5.33863">
        <ele>343</ele>
        <time>2019-03-05T02:53:52Z</time>
      </trkpt>
      <trkpt lat="43.94868" lon="5.33865">
        <ele>343</ele>
        <time>2019-03-05T02:54:52Z</time>
      </trkpt>
      <trkpt lat="43.94844" lon="5.33867">
        <ele>345</ele>
        <time>2019-03-05T02:55:52Z</time>
      </trkpt>
      <trkpt lat="43.94827" lon="5.33868">
        <ele>346</ele>
        <time>2019-03-05T02:56:52Z</time>
      </trkpt>
      <trkpt lat="43.94821" lon="5.33869">
        <ele>346</ele>
        <time>2019-03-05T02:57:52Z</time>
      </trkpt>
      <trkpt lat="43.94821" lon="5.33875">
        <ele>346</ele>
        <time>2019-03-05T02:58:52Z</time>
      </trkpt>
      <trkpt lat="43.94819" lon="5.33877">
        <ele>346</ele>
        <time>2019-03-05T02:59:52Z</time>
      </trkpt>
      <trkpt lat="43.94809" lon="5.33876">
        <ele>347</ele>
        <time>2019-03-05T03:00:52Z</time>
      </trkpt>
      <trkpt lat="43.94795" lon="5.33881">
        <ele>348</ele>
        <time>2019-03-05T03:01:52Z</time>
      </trkpt>
      <trkpt lat="43.94783" lon="5.3388">
        <ele>349</ele>
        <time>2019-03-05T03:02:52Z</time>
      </trkpt>
      <trkpt lat="43.9477" lon="5.33881">
        <ele>349</ele>
        <time>2019-03-05T03:03:52Z</time>
      </trkpt>
      <trkpt lat="43.94757" lon="5.33883">
        <ele>350</ele>
        <time>2019-03-05T03:04:52Z</time>
      </trkpt>
      <trkpt lat="43.94754" lon="5.33884">
        <ele>350</ele>
        <time>2019-03-05T03:05:52Z</time>
      </trkpt>
      <trkpt lat="43.94735" lon="5.33893">
        <ele>350</ele>
        <time>2019-03-05T03:06:52Z</time>
      </trkpt>
      <trkpt lat="43.94712" lon="5.339">
        <ele>350</ele>
        <time>2019-03-05T03:07:52Z</time>
      </trkpt>
      <trkpt lat="43.94694" lon="5.33903">
        <ele>350</ele>
        <time>2019-03-05T03:08:52Z</time>
      </trkpt>
      <trkpt lat="43.94676" lon="5.3391">
        <ele>349</ele>
        <time>2019-03-05T03:09:52Z</time>
      </trkpt>
      <trkpt lat="43.9466" lon="5.33913">
        <ele>349</ele>
        <time>2019-03-05T03:10:52Z</time>
      </trkpt>
      <trkpt lat="43.94634" lon="5.33906">
        <ele>349</ele>
        <time>2019-03-05T03:11:52Z</time>
      </trkpt>
      <trkpt lat="43.94615" lon="5.33905">
        <ele>349</ele>
        <time>2019-03-05T03:12:52Z</time>
      </trkpt>
      <trkpt lat="43.94604" lon="5.33924">
        <ele>345</ele>
        <time>2019-03-05T03:13:52Z</time>
      </trkpt>
      <trkpt lat="43.94598" lon="5.33938">
        <ele>343</ele>
        <time>2019-03-05T03:14:52Z</time>
      </trkpt>
      <trkpt lat="43.94581" lon="5.33957">
        <ele>339</ele>
        <time>2019-03-05T03:15:52Z</time>
      </trkpt>
      <trkpt lat="43.94575" lon="5.33965">
        <ele>338</ele>
        <time>2019-03-05T03:16:52Z</time>
      </trkpt>
      <trkpt lat="43.94556" lon="5.33981">
        <ele>334</ele>
        <time>2019-03-05T03:17:52Z</time>
      </trkpt>
      <trkpt lat="43.9454" lon="5.33993">
        <ele>330</ele>
        <time>2019-03-05T03:18:52Z</time>
      </trkpt>
      <trkpt lat="43.94525" lon="5.34009">
        <ele>328</ele>
        <time>2019-03-05T03:19:52Z</time>
      </trkpt>
      <trkpt lat="43.9451" lon="5.3403">
        <ele>328</ele>
        <time>2019-03-05T03:20:52Z</time>
      </trkpt>
      <trkpt lat="43.94487" lon="5.34042">
        <ele>327</ele>
        <time>2019-03-05T03:21:52Z</time>
      </trkpt>
      <trkpt lat="43.9446" lon="5.34047">
        <ele>327</ele>
        <time>2019-03-05T03:22:52Z</time>
      </trkpt>
      <trkpt lat="43.94439" lon="5.34053">
        <ele>328</ele>
        <time>2019-03-05T03:23:52Z</time>
      </trkpt>
      <trkpt lat="43.94399" lon="5.34041">
        <ele>325</ele>
        <time>2019-03-05T03:24:52Z</time>
      </trkpt>
      <trkpt lat="43.94377" lon="5.34042">
        <ele>324</ele>
        <time>2019-03-05T03:25:52Z</time>
      </trkpt>
      <trkpt lat="43.94358" lon="5.3405">
        <ele>323</ele>
        <time>2019-03-05T03:26:52Z</time>
      </trkpt>
      <trkpt lat="43.94339" lon="5.34056">
        <ele>323</ele>
        <time>2019-03-05T03:27:52Z</time>
      </trkpt>
      <trkpt lat="43.94297" lon="5.34072">
        <ele>321</ele>
        <time>2019-03-05T03:28:52Z</time>
      </trkpt>
      <trkpt lat="43.94278" lon="5.34081">
        <ele>320</ele>
        <time>2019-03-05T03:29:52Z</time>
      </trkpt>
      <trkpt lat="43.94258" lon="5.34086">
        <ele>318</ele>
        <time>2019-03-05T03:30:52Z</time>
      </trkpt>
      <trkpt lat="43.9424" lon="5.34092">
        <ele>318</ele>
        <time>2019-03-05T03:31:52Z</time>
      </trkpt>
      <trkpt lat="43.94224" lon="5.34096">
        <ele>319</ele>
        <time>2019-03-05T03:32:52Z</time>
      </trkpt>
      <trkpt lat="43.94204" lon="5.34101">
        <ele>319</ele>
        <time>2019-03-05T03:33:52Z</time>
      </trkpt>
      <trkpt lat="43.94167" lon="5.34106">
        <ele>318</ele>
        <time>2019-03-05T03:34:52Z</time>
      </trkpt>
      <trkpt lat="43.94143" lon="5.34108">
        <ele>318</ele>
        <time>2019-03-05T03:35:52Z</time>
      </trkpt>
      <trkpt lat="43.94118" lon="5.34108">
        <ele>318</ele>
        <time>2019-03-05T03:36:52Z</time>
      </trkpt>
      <trkpt lat="43.94096" lon="5.34092">
        <ele>316</ele>
        <time>2019-03-05T03:37:52Z</time>
      </trkpt>
      <trkpt lat="43.94091" lon="5.34083">
        <ele>315</ele>
        <time>2019-03-05T03:38:52Z</time>
      </trkpt>
      <trkpt lat="43.9409" lon="5.34078">
        <ele>315</ele>
        <time>2019-03-05T03:39:52Z</time>
      </trkpt>
      <trkpt lat="43.94088" lon="5.34074">
        <ele>315</ele>
        <time>2019-03-05T03:40:52Z</time>
      </trkpt>
      <trkpt lat="43.94085" lon="5.34075">
        <ele>315</ele>
        <time>2019-03-05T03:41:52Z</time>
      </trkpt>
      <trkpt lat="43.94088" lon="5.34078">
        <ele>315</ele>
        <time>2019-03-05T03:42:52Z</time>
      </trkpt>
      <trkpt lat="43.94094" lon="5.34077">
        <ele>315</ele>
        <time>2019-03-05T03:43:52Z</time>
      </trkpt>
      <trkpt lat="43.94096" lon="5.34073">
        <ele>314</ele>
        <time>2019-03-05T03:44:52Z</time>
      </trkpt>
      <trkpt lat="43.94097" lon="5.3407">
        <ele>314</ele>
        <time>2019-03-05T03:45:52Z</time>
      </trkpt>
      <trkpt lat="43.94104" lon="5.34047">
        <ele>314</ele>
        <time>2019-03-05T03:46:52Z</time>
      </trkpt>
      <trkpt lat="43.94105" lon="5.3402">
        <ele>313</ele>
        <time>2019-03-05T03:47:52Z</time>
      </trkpt>
      <trkpt lat="43.94106" lon="5.33996">
        <ele>313</ele>
        <time>2019-03-05T03:48:52Z</time>
      </trkpt>
      <trkpt lat="43.94102" lon="5.33975">
        <ele>316</ele>
        <time>2019-03-05T03:49:52Z</time>
      </trkpt>
      <trkpt lat="43.94095" lon="5.33959">
        <ele>318</ele>
        <time>2019-03-05T03:50:52Z</time>
      </trkpt>
      <trkpt lat="43.94073" lon="5.33924">
        <ele>321</ele>
        <time>2019-03-05T03:51:52Z</time>
      </trkpt>
      <trkpt lat="43.94062" lon="5.33904">
        <ele>321</ele>
        <time>2019-03-05T03:52:52Z</time>
      </trkpt>
      <trkpt lat="43.94058" lon="5.33887">
        <ele>323</ele>
        <time>2019-03-05T03:53:52Z</time>
      </trkpt>
      <trkpt lat="43.94051" lon="5.33864">
        <ele>325</ele>
        <time>2019-03-05T03:54:52Z</time>
      </trkpt>
      <trkpt lat="43.94048" lon="5.33834">
        <ele>328</ele>
        <time>2019-03-05T03:55:52Z</time>
      </trkpt>
      <trkpt lat="43.94047" lon="5.33813">
        <ele>330</ele>
        <time>2019-03-05T03:56:52Z</time>
      </trkpt>
      <trkpt lat="43.9405" lon="5.33794">
        <ele>332</ele>
        <time>2019-03-05T03:57:52Z</time>
      </trkpt>
      <trkpt lat="43.94055" lon="5.33765">
        <ele>334</ele>
        <time>2019-03-05T03:58:52Z</time>
      </trkpt>
      <trkpt lat="43.94067" lon="5.33722">
        <ele>338</ele>
        <time>2019-03-05T03:59:52Z</time>
      </trkpt>
      <trkpt lat="43.94073" lon="5.33699">
        <ele>340</ele>
        <time>2019-03-05T04:00:52Z</time>
      </trkpt>
      <trkpt lat="43.94081" lon="5.33655">
        <ele>341</ele>
        <time>2019-03-05T04:01:52Z</time>
      </trkpt>
      <trkpt lat="43.94083" lon="5.33646">
        <ele>341</ele>
        <time>2019-03-05T04:02:52Z</time>
      </trkpt>
      <trkpt lat="43.94083" lon="5.33639">
        <ele>340</ele>
        <time>2019-03-05T04:03:52Z</time>
      </trkpt>
      <trkpt lat="43.94081" lon="5.33642">
        <ele>340</ele>
        <time>2019-03-05T04:04:52Z</time>
      </trkpt>
      <trkpt lat="43.94081" lon="5.3364">
        <ele>340</ele>
        <time>2019-03-05T04:05:52Z</time>
      </trkpt>
      <trkpt lat="43.9408" lon="5.3364">
        <ele>340</ele>
        <time>2019-03-05T04:06:52Z</time>
      </trkpt>
      <trkpt lat="43.9408" lon="5.33645">
        <ele>340</ele>
        <time>2019-03-05T04:07:52Z</time>
      </trkpt>
      <trkpt lat="43.94085" lon="5.33641">
        <ele>341</ele>
        <time>2019-03-05T04:08:52Z</time>
      </trkpt>
      <trkpt lat="43.94091" lon="5.33632">
        <ele>341</ele>
        <time>2019-03-05T04:09:52Z</time>
      </trkpt>
      <trkpt lat="43.94092" lon="5.33633">
        <ele>341</ele>
        <time>2019-03-05T04:10:52Z</time>
      </trkpt>
      <trkpt lat="43.94093" lon="5.33633">
        <ele>341</ele>
        <time>2019-03-05T04:11:52Z</time>
      </trkpt>
      <trkpt lat="43.94104" lon="5.33615">
        <ele>341</ele>
        <time>2019-03-05T04:12:52Z</time>
      </trkpt>
      <trkpt lat="43.94117" lon="5.33605">
        <ele>342</ele>
        <time>2019-03-05T04:13:52Z</time>
      </trkpt>
      <trkpt lat="43.94136" lon="5.33597">
        <ele>343</ele>
        <time>2019-03-05T04:14:52Z</time>
      </trkpt>
      <trkpt lat="43.94158" lon="5.33594">
        <ele>345</ele>
        <time>2019-03-05T04:15:52Z</time>
      </trkpt>
      <trkpt lat="43.9417" lon="5.33593">
        <ele>346</ele>
        <time>2019-03-05T04:16:52Z</time>
      </trkpt>
      <trkpt lat="43.94181" lon="5.33595">
        <ele>347</ele>
        <time>2019-03-05T04:17:52Z</time>
      </trkpt>
      <trkpt lat="43.94196" lon="5.33594">
        <ele>347</ele>
        <time>2019-03-05T04:18:52Z</time>
      </trkpt>
      <trkpt lat="43.94215" lon="5.33588">
        <ele>348</ele>
        <time>2019-03-05T04:19:52Z</time>
      </trkpt>
      <trkpt lat="43.9423" lon="5.33569">
        <ele>348</ele>
        <time>2019-03-05T04:20:52Z</time>
      </trkpt>
      <trkpt lat="43.94238" lon="5.33544">
        <ele>348</ele>
        <time>2019-03-05T04:21:52Z</time>
      </trkpt>
      <trkpt lat="43.94245" lon="5.33519">
        <ele>348</ele>
        <time>2019-03-05T04:22:52Z</time>
      </trkpt>
      <trkpt lat="43.94254" lon="5.33495">
        <ele>349</ele>
        <time>2019-03-05T04:23:52Z</time>
      </trkpt>
      <trkpt lat="43.94267" lon="5.33475">
        <ele>351</ele>
        <time>2019-03-05T04:24:52Z</time>
      </trkpt>
      <trkpt lat="43.94281" lon="5.33448">
        <ele>353</ele>
        <time>2019-03-05T04:25:52Z</time>
      </trkpt>
      <trkpt lat="43.94289" lon="5.33423">
        <ele>354</ele>
        <time>2019-03-05T04:26:52Z</time>
      </trkpt>
      <trkpt lat="43.94295" lon="5.33401">
        <ele>355</ele>
        <time>2019-03-05T04:27:52Z</time>
      </trkpt>
      <trkpt lat="43.94296" lon="5.33377">
        <ele>355</ele>
        <time>2019-03-05T04:28:52Z</time>
      </trkpt>
      <trkpt lat="43.94301" lon="5.33351">
        <ele>355</ele>
        <time>2019-03-05T04:29:52Z</time>
      </trkpt>
      <trkpt lat="43.94308" lon="5.33327">
        <ele>355</ele>
        <time>2019-03-05T04:30:52Z</time>
      </trkpt>
      <trkpt lat="43.94307" lon="5.33305">
        <ele>356</ele>
        <time>2019-03-05T04:31:52Z</time>
      </trkpt>
      <trkpt lat="43.94312" lon="5.33276">
        <ele>356</ele>
        <time>2019-03-05T04:32:52Z</time>
      </trkpt>
      <trkpt lat="43.94311" lon="5.33272">
        <ele>356</ele>
        <time>2019-03-05T04:33:52Z</time>
      </trkpt>
      <trkpt lat="43.94314" lon="5.33258">
        <ele>356</ele>
        <time>2019-03-05T04:34:52Z</time>
      </trkpt>
      <trkpt lat="43.94315" lon="5.33253">
        <ele>356</ele>
        <time>2019-03-05T04:35:52Z</time>
      </trkpt>
      <trkpt lat="43.94322" lon="5.3323">
        <ele>356</ele>
        <time>2019-03-05T04:36:52Z</time>
      </trkpt>
      <trkpt lat="43.94333" lon="5.33203">
        <ele>355</ele>
        <time>2019-03-05T04:37:52Z</time>
      </trkpt>
      <trkpt lat="43.94348" lon="5.33167">
        <ele>357</ele>
        <time>2019-03-05T04:38:52Z</time>
      </trkpt>
      <trkpt lat="43.94361" lon="5.33137">
        <ele>358</ele>
        <time>2019-03-05T04:39:52Z</time>
      </trkpt>
      <trkpt lat="43.94366" lon="5.3313">
        <ele>358</ele>
        <time>2019-03-05T04:40:52Z</time>
      </trkpt>
      <trkpt lat="43.94368" lon="5.33124">
        <ele>358</ele>
        <time>2019-03-05T04:41:52Z</time>
      </trkpt>
      <trkpt lat="43.94371" lon="5.33113">
        <ele>358</ele>
        <time>2019-03-05T04:42:52Z</time>
      </trkpt>
      <trkpt lat="43.94371" lon="5.33114">
        <ele>358</ele>
        <time>2019-03-05T04:43:52Z</time>
      </trkpt>
      <trkpt lat="43.94369" lon="5.33113">
        <ele>358</ele>
        <time>2019-03-05T04:44:52Z</time>
      </trkpt>
      <trkpt lat="43.9437" lon="5.33114">
        <ele>358</ele>
        <time>2019-03-05T04:45:52Z</time>
      </trkpt>
      <trkpt lat="43.9437" lon="5.33111">
        <ele>358</ele>
        <time>2019-03-05T04:46:52Z</time>
      </trkpt>
      <trkpt lat="43.94369" lon="5.33111">
        <ele>358</ele>
        <time>2019-03-05T04:47:52Z</time>
      </trkpt>
      <trkpt lat="43.94369" lon="5.33112">
        <ele>358</ele>
        <time>2019-03-05T04:48:52Z</time>
      </trkpt>
      <trkpt lat="43.94368" lon="5.33111">
        <ele>358</ele>
        <time>2019-03-05T04:49:52Z</time>
      </trkpt>
      <trkpt lat="43.94366" lon="5.3311">
        <ele>358</ele>
        <time>2019-03-05T04:50:52Z</time>
      </trkpt>
      <trkpt lat="43.94367" lon="5.33109">
        <ele>358</ele>
        <time>2019-03-05T04:51:52Z</time>
      </trkpt>
      <trkpt lat="43.94369" lon="5.3311">
        <ele>358</ele>
        <time>2019-03-05T04:52:52Z</time>
      </trkpt>
      <trkpt lat="43.9437" lon="5.33101">
        <ele>358</ele>
        <time>2019-03-05T04:53:52Z</time>
      </trkpt>
      <trkpt lat="43.94376" lon="5.33084">
        <ele>358</ele>
        <time>2019-03-05T04:54:52Z</time>
      </trkpt>
      <trkpt lat="43.94375" lon="5.33063">
        <ele>358</ele>
        <time>2019-03-05T04:55:52Z</time>
      </trkpt>
      <trkpt lat="43.94369" lon="5.3304">
        <ele>357</ele>
        <time>2019-03-05T04:56:52Z</time>
      </trkpt>
      <trkpt lat="43.94366" lon="5.33018">
        <ele>356</ele>
        <time>2019-03-05T04:57:52Z</time>
      </trkpt>
      <trkpt lat="43.94363" lon="5.3299">
        <ele>356</ele>
        <time>2019-03-05T04:58:52Z</time>
      </trkpt>
      <trkpt lat="43.94357" lon="5.32968">
        <ele>356</ele>
        <time>2019-03-05T04:59:52Z</time>
      </trkpt>
      <trkpt lat="43.94348" lon="5.32944">
        <ele>356</ele>
        <time>2019-03-05T05:00:52Z</time>
      </trkpt>
      <trkpt lat="43.94339" lon="5.32931">
        <ele>355</ele>
        <time>2019-03-05T05:01:52Z</time>
      </trkpt>
      <trkpt lat="43.94329" lon="5.32907">
        <ele>355</ele>
        <time>2019-03-05T05:02:52Z</time>
      </trkpt>
      <trkpt lat="43.94322" lon="5.32883">
        <ele>354</ele>
        <time>2019-03-05T05:03:52Z</time>
      </trkpt>
      <trkpt lat="43.94312" lon="5.32861">
        <ele>354</ele>
        <time>2019-03-05T05:04:52Z</time>
      </trkpt>
      <trkpt lat="43.94291" lon="5.32814">
        <ele>352</ele>
        <time>2019-03-05T05:05:52Z</time>
      </trkpt>
      <trkpt lat="43.94278" lon="5.32787">
        <ele>351</ele>
        <time>2019-03-05T05:06:52Z</time>
      </trkpt>
      <trkpt lat="43.9427" lon="5.32761">
        <ele>351</ele>
        <time>2019-03-05T05:07:52Z</time>
      </trkpt>
      <trkpt lat="43.94261" lon="5.3273">
        <ele>350</ele>
        <time>2019-03-05T05:08:52Z</time>
      </trkpt>
      <trkpt lat="43.94236" lon="5.32675">
        <ele>346</ele>
        <time>2019-03-05T05:09:52Z</time>
      </trkpt>
      <trkpt lat="43.94229" lon="5.32651">
        <ele>345</ele>
        <time>2019-03-05T05:10:52Z</time>
      </trkpt>
      <trkpt lat="43.94219" lon="5.32631">
        <ele>344</ele>
        <time>2019-03-05T05:11:52Z</time>
      </trkpt>
      <trkpt lat="43.94206" lon="5.32604">
        <ele>343</ele>
        <time>2019-03-05T05:12:52Z</time>
      </trkpt>
      <trkpt lat="43.94193" lon="5.32583">
        <ele>342</ele>
        <time>2019-03-05T05:13:52Z</time>
      </trkpt>
      <trkpt lat="43.94192" lon="5.32582">
        <ele>342</ele>
        <time>2019-03-05T05:14:52Z</time>
      </trkpt>
      <trkpt lat="43.94183" lon="5.32572">
        <ele>341</ele>
        <time>2019-03-05T05:15:52Z</time>
      </trkpt>
      <trkpt lat="43.94177" lon="5.32562">
        <ele>340</ele>
        <time>2019-03-05T05:16:52Z</time>
      </trkpt>
      <trkpt lat="43.94186" lon="5.32561">
        <ele>342</ele>
        <time>2019-03-05T05:17:52Z</time>
      </trkpt>
      <trkpt lat="43.9419" lon="5.32555">
        <ele>342</ele>
        <time>2019-03-05T05:18:52Z</time>
      </trkpt>
      <trkpt lat="43.94184" lon="5.32556">
        <ele>341</ele>
        <time>2019-03-05T05:19:52Z</time>
      </trkpt>
      <trkpt lat="43.9418" lon="5.32559">
        <ele>341</ele>
        <time>2019-03-05T05:20:52Z</time>
      </trkpt>
      <trkpt lat="43.94178" lon="5.32557">
        <ele>341</ele>
        <time>2019-03-05T05:21:52Z</time>
      </trkpt>
      <trkpt lat="43.9418" lon="5.32557">
        <ele>341</ele>
        <time>2019-03-05T05:22:52Z</time>
      </trkpt>
      <trkpt lat="43.9418" lon="5.32556">
        <ele>341</ele>
        <time>2019-03-05T05:23:52Z</time>
      </trkpt>
      <trkpt lat="43.94177" lon="5.3255">
        <ele>341</ele>
        <time>2019-03-05T05:24:52Z</time>
      </trkpt>
      <trkpt lat="43.94169" lon="5.32524">
        <ele>340</ele>
        <time>2019-03-05T05:25:52Z</time>
      </trkpt>
      <trkpt lat="43.94159" lon="5.32499">
        <ele>339</ele>
        <time>2019-03-05T05:26:52Z</time>
      </trkpt>
      <trkpt lat="43.94145" lon="5.32474">
        <ele>338</ele>
        <time>2019-03-05T05:27:52Z</time>
      </trkpt>
      <trkpt lat="43.94133" lon="5.3245">
        <ele>336</ele>
        <time>2019-03-05T05:28:52Z</time>
      </trkpt>
      <trkpt lat="43.9412" lon="5.32425">
        <ele>335</ele>
        <time>2019-03-05T05:29:52Z</time>
      </trkpt>
      <trkpt lat="43.94098" lon="5.32401">
        <ele>333</ele>
        <time>2019-03-05T05:30:52Z</time>
      </trkpt>
      <trkpt lat="43.94084" lon="5.32384">
        <ele>332</ele>
        <time>2019-03-05T05:31:52Z</time>
      </trkpt>
      <trkpt lat="43.94068" lon="5.32361">
        <ele>330</ele>
        <time>2019-03-05T05:32:52Z</time>
      </trkpt>
      <trkpt lat="43.94058" lon="5.32343">
        <ele>330</ele>
        <time>2019-03-05T05:33:52Z</time>
      </trkpt>
      <trkpt lat="43.94048" lon="5.32315">
        <ele>329</ele>
        <time>2019-03-05T05:34:52Z</time>
      </trkpt>
      <trkpt lat="43.94037" lon="5.32287">
        <ele>327</ele>
        <time>2019-03-05T05:35:52Z</time>
      </trkpt>
      <trkpt lat="43.94026" lon="5.32268">
        <ele>326</ele>
        <time>2019-03-05T05:36:52Z</time>
      </trkpt>
      <trkpt lat="43.94013" lon="5.32242">
        <ele>325</ele>
        <time>2019-03-05T05:37:52Z</time>
      </trkpt>
      <trkpt lat="43.93998" lon="5.32215">
        <ele>323</ele>
        <time>2019-03-05T05:38:52Z</time>
      </trkpt>
      <trkpt lat="43.93988" lon="5.32187">
        <ele>322</ele>
        <time>2019-03-05T05:39:52Z</time>
      </trkpt>
      <trkpt lat="43.93986" lon="5.32176">
        <ele>322</ele>
        <time>2019-03-05T05:40:52Z</time>
      </trkpt>
      <trkpt lat="43.93984" lon="5.32167">
        <ele>322</ele>
        <time>2019-03-05T05:41:52Z</time>
      </trkpt>
      <trkpt lat="43.93986" lon="5.32165">
        <ele>322</ele>
        <time>2019-03-05T05:42:52Z</time>
      </trkpt>
      <trkpt lat="43.93984" lon="5.32153">
        <ele>322</ele>
        <time>2019-03-05T05:43:52Z</time>
      </trkpt>
      <trkpt lat="43.93982" lon="5.32129">
        <ele>322</ele>
        <time>2019-03-05T05:44:52Z</time>
      </trkpt>
      <trkpt lat="43.93978" lon="5.32104">
        <ele>321</ele>
        <time>2019-03-05T05:45:52Z</time>
      </trkpt>
      <trkpt lat="43.93969" lon="5.32077">
        <ele>320</ele>
        <time>2019-03-05T05:46:52Z</time>
      </trkpt>
      <trkpt lat="43.93958" lon="5.32055">
        <ele>320</ele>
        <time>2019-03-05T05:47:52Z</time>
      </trkpt>
      <trkpt lat="43.93942" lon="5.32004">
        <ele>320</ele>
        <time>2019-03-05T05:48:52Z</time>
      </trkpt>
      <trkpt lat="43.93931" lon="5.31979">
        <ele>319</ele>
        <time>2019-03-05T05:49:52Z</time>
      </trkpt>
      <trkpt lat="43.93918" lon="5.31954">
        <ele>318</ele>
        <time>2019-03-05T05:50:52Z</time>
      </trkpt>
      <trkpt lat="43.93905" lon="5.3193">
        <ele>317</ele>
        <time>2019-03-05T05:51:52Z</time>
      </trkpt>
      <trkpt lat="43.93894" lon="5.31903">
        <ele>316</ele>
        <time>2019-03-05T05:52:52Z</time>
      </trkpt>
      <trkpt lat="43.93885" lon="5.31878">
        <ele>315</ele>
        <time>2019-03-05T05:53:52Z</time>
      </trkpt>
      <trkpt lat="43.93873" lon="5.31854">
        <ele>314</ele>
        <time>2019-03-05T05:54:52Z</time>
      </trkpt>
      <trkpt lat="43.9386" lon="5.31831">
        <ele>313</ele>
        <time>2019-03-05T05:55:52Z</time>
      </trkpt>
      <trkpt lat="43.93847" lon="5.31809">
        <ele>312</ele>
        <time>2019-03-05T05:56:52Z</time>
      </trkpt>
      <trkpt lat="43.93835" lon="5.31783">
        <ele>310</ele>
        <time>2019-03-05T05:57:52Z</time>
      </trkpt>
      <trkpt lat="43.93824" lon="5.31755">
        <ele>309</ele>
        <time>2019-03-05T05:58:52Z</time>
      </trkpt>
      <trkpt lat="43.93817" lon="5.31728">
        <ele>309</ele>
        <time>2019-03-05T05:59:52Z</time>
      </trkpt>
      <trkpt lat="43.9381" lon="5.31704">
        <ele>310</ele>
        <time>2019-03-05T06:00:52Z</time>
      </trkpt>
      <trkpt lat="43.93803" lon="5.31676">
        <ele>310</ele>
        <time>2019-03-05T06:01:52Z</time>
      </trkpt>
      <trkpt lat="43.93801" lon="5.31648">
        <ele>310</ele>
        <time>2019-03-05T06:02:52Z</time>
      </trkpt>
      <trkpt lat="43.93793" lon="5.31624">
        <ele>310</ele>
        <time>2019-03-05T06:03:52Z</time>
      </trkpt>
      <trkpt lat="43.93787" lon="5.31614">
        <ele>309</ele>
        <time>2019-03-05T06:04:52Z</time>
      </trkpt>
      <trkpt lat="43.93747" lon="5.3156">
        <ele>304</ele>
        <time>2019-03-05T06:05:52Z</time>
      </trkpt>
      <trkpt lat="43.93736" lon="5.3154">
        <ele>303</ele>
        <time>2019-03-05T06:06:52Z</time>
      </trkpt>
      <trkpt lat="43.93705" lon="5.31475">
        <ele>299</ele>
        <time>2019-03-05T06:07:52Z</time>
      </trkpt>
      <trkpt lat="43.93701" lon="5.31466">
        <ele>298</ele>
        <time>2019-03-05T06:08:52Z</time>
      </trkpt>
      <trkpt lat="43.9369" lon="5.31446">
        <ele>297</ele>
        <time>2019-03-05T06:09:52Z</time>
      </trkpt>
      <trkpt lat="43.93688" lon="5.31442">
        <ele>297</ele>
        <time>2019-03-05T06:10:52Z</time>
      </trkpt>
      <trkpt lat="43.93659" lon="5.31403">
        <ele>293</ele>
        <time>2019-03-05T06:11:52Z</time>
      </trkpt>
      <trkpt lat="43.93642" lon="5.31382">
        <ele>292</ele>
        <time>2019-03-05T06:12:52Z</time>
      </trkpt>
      <trkpt lat="43.93614" lon="5.31351">
        <ele>289</ele>
        <time>2019-03-05T06:13:52Z</time>
      </trkpt>
      <trkpt lat="43.93602" lon="5.31334">
        <ele>288</ele>
        <time>2019-03-05T06:14:52Z</time>
      </trkpt>
      <trkpt lat="43.93578" lon="5.31325">
        <ele>285</ele>
        <time>2019-03-05T06:15:52Z</time>
      </trkpt>
      <trkpt lat="43.93576" lon="5.31326">
        <ele>285</ele>
        <time>2019-03-05T06:16:52Z</time>
      </trkpt>
      <trkpt lat="43.9358" lon="5.31323">
        <ele>286</ele>
        <time>2019-03-05T06:17:52Z</time>
      </trkpt>
      <trkpt lat="43.9358" lon="5.31301">
        <ele>286</ele>
        <time>2019-03-05T06:18:52Z</time>
      </trkpt>
      <trkpt lat="43.93577" lon="5.31282">
        <ele>286</ele>
        <time>2019-03-05T06:19:52Z</time>
      </trkpt>
      <trkpt lat="43.93578" lon="5.31281">
        <ele>286</ele>
        <time>2019-03-05T06:20:52Z</time>
      </trkpt>
      <trkpt lat="43.93582" lon="5.31254">
        <ele>287</ele>
        <time>2019-03-05T06:21:52Z</time>
      </trkpt>
      <trkpt lat="43.93583" lon="5.31193">
        <ele>288</ele>
        <time>2019-03-05T06:22:52Z</time>
      </trkpt>
      <trkpt lat="43.93584" lon="5.31177">
        <ele>289</ele>
        <time>2019-03-05T06:23:52Z</time>
      </trkpt>
      <trkpt lat="43.93587" lon="5.31149">
        <ele>290</ele>
        <time>2019-03-05T06:24:52Z</time>
      </trkpt>
      <trkpt lat="43.93588" lon="5.3112">
        <ele>291</ele>
        <time>2019-03-05T06:25:52Z</time>
      </trkpt>
      <trkpt lat="43.93591" lon="5.31089">
        <ele>292</ele>
        <time>2019-03-05T06:26:52Z</time>
      </trkpt>
      <trkpt lat="43.93594" lon="5.31064">
        <ele>292</ele>
        <time>2019-03-05T06:27:52Z</time>
      </trkpt>
      <trkpt lat="43.93594" lon="5.31037">
        <ele>292</ele>
        <time>2019-03-05T06:28:52Z</time>
      </trkpt>
      <trkpt lat="43.93596" lon="5.31007">
        <ele>292</ele>
        <time>2019-03-05T06:29:52Z</time>
      </trkpt>
      <trkpt lat="43.93599" lon="5.30977">
        <ele>293</ele>
        <time>2019-03-05T06:30:52Z</time>
      </trkpt>
      <trkpt lat="43.936" lon="5.30973">
        <ele>293</ele>
        <time>2019-03-05T06:31:52Z</time>
      </trkpt>
      <trkpt lat="43.93598" lon="5.30972">
        <ele>292</ele>
        <time>2019-03-05T06:32:52Z</time>
      </trkpt>
      <trkpt lat="43.93599" lon="5.30972">
        <ele>293</ele>
        <time>2019-03-05T06:33:52Z</time>
      </trkpt>
      <trkpt lat="43.93597" lon="5.30972">
        <ele>292</ele>
        <time>2019-03-05T06:34:52Z</time>
      </trkpt>
      <trkpt lat="43.93597" lon="5.30971">
        <ele>292</ele>
        <time>2019-03-05T06:35:52Z</time>
      </trkpt>
      <trkpt lat="43.93602" lon="5.30951">
        <ele>293</ele>
        <time>2019-03-05T06:36:52Z</time>
      </trkpt>
      <trkpt lat="43.93607" lon="5.30924">
        <ele>294</ele>
        <time>2019-03-05T06:37:52Z</time>
      </trkpt>
      <trkpt lat="43.93611" lon="5.30897">
        <ele>294</ele>
        <time>2019-03-05T06:38:52Z</time>
      </trkpt>
      <trkpt lat="43.93612" lon="5.30864">
        <ele>294</ele>
        <time>2019-03-05T06:39:52Z</time>
      </trkpt>
      <trkpt lat="43.93611" lon="5.30838">
        <ele>293</ele>
        <time>2019-03-05T06:40:52Z</time>
      </trkpt>
      <trkpt lat="43.93606" lon="5.30815">
        <ele>293</ele>
        <time>2019-03-05T06:41:52Z</time>
      </trkpt>
      <trkpt lat="43.93602" lon="5.30755">
        <ele>293</ele>
        <time>2019-03-05T06:42:52Z</time>
      </trkpt>
      <trkpt lat="43.93603" lon="5.30731">
        <ele>293</ele>
        <time>2019-03-05T06:43:52Z</time>
      </trkpt>
      <trkpt lat="43.93599" lon="5.30709">
        <ele>293</ele>
        <time>2019-03-05T06:44:52Z</time>
      </trkpt>
      <trkpt lat="43.93597" lon="5.30681">
        <ele>293</ele>
        <time>2019-03-05T06:45:52Z</time>
      </trkpt>
      <trkpt lat="43.93595" lon="5.30658">
        <ele>293</ele>
        <time>2019-03-05T06:46:52Z</time>
      </trkpt>
      <trkpt lat="43.9359" lon="5.30632">
        <ele>292</ele>
        <time>2019-03-05T06:47:52Z</time>
      </trkpt>
      <trkpt lat="43.93587" lon="5.30602">
        <ele>292</ele>
        <time>2019-03-05T06:48:52Z</time>
      </trkpt>
      <trkpt lat="43.93587" lon="5.30584">
        <ele>292</ele>
        <time>2019-03-05T06:49:52Z</time>
      </trkpt>
      <trkpt lat="43.93593" lon="5.30558">
        <ele>293</ele>
        <time>2019-03-05T06:50:52Z</time>
      </trkpt>
      <trkpt lat="43.93596" lon="5.30533">
        <ele>294</ele>
        <time>2019-03-05T06:51:52Z</time>
      </trkpt>
      <trkpt lat="43.93593" lon="5.30478">
        <ele>295</ele>
        <time>2019-03-05T06:52:52Z</time>
      </trkpt>
      <trkpt lat="43.93594" lon="5.30472">
        <ele>295</ele>
        <time>2019-03-05T06:53:52Z</time>
      </trkpt>
      <trkpt lat="43.93593" lon="5.30471">
        <ele>295</ele>
        <time>2019-03-05T06:54:52Z</time>
      </trkpt>
      <trkpt lat="43.93592" lon="5.30468">
        <ele>295</ele>
        <time>2019-03-05T06:55:52Z</time>
      </trkpt>
      <trkpt lat="43.93591" lon="5.30468">
        <ele>295</ele>
        <time>2019-03-05T06:56:52Z</time>
      </trkpt>
      <trkpt lat="43.93591" lon="5.30469">
        <ele>295</ele>
        <time>2019-03-05T06:57:52Z</time>
      </trkpt>
      <trkpt lat="43.93591" lon="5.3047">
        <ele>295</ele>
        <time>2019-03-05T06:58:52Z</time>
      </trkpt>
      <trkpt lat="43.93592" lon="5.3047">
        <ele>295</ele>
        <time>2019-03-05T06:59:52Z</time>
      </trkpt>
      <trkpt lat="43.93592" lon="5.30469">
        <ele>295</ele>
        <time>2019-03-05T07:00:52Z</time>
      </trkpt>
      <trkpt lat="43.93593" lon="5.3047">
        <ele>295</ele>
        <time>2019-03-05T07:01:52Z</time>
      </trkpt>
      <trkpt lat="43.936" lon="5.30451">
        <ele>296</ele>
        <time>2019-03-05T07:02:52Z</time>
      </trkpt>
      <trkpt lat="43.93603" lon="5.30429">
        <ele>297</ele>
        <time>2019-03-05T07:03:52Z</time>
      </trkpt>
      <trkpt lat="43.93613" lon="5.3037">
        <ele>298</ele>
        <time>2019-03-05T07:04:52Z</time>
      </trkpt>
      <trkpt lat="43.93618" lon="5.30347">
        <ele>299</ele>
        <time>2019-03-05T07:05:52Z</time>
      </trkpt>
      <trkpt lat="43.93616" lon="5.30315">
        <ele>299</ele>
        <time>2019-03-05T07:06:52Z</time>
      </trkpt>
      <trkpt lat="43.93615" lon="5.30294">
        <ele>299</ele>
        <time>2019-03-05T07:07:52Z</time>
      </trkpt>
      <trkpt lat="43.93616" lon="5.30265">
        <ele>300</ele>
        <time>2019-03-05T07:08:52Z</time>
      </trkpt>
      <trkpt lat="43.93615" lon="5.30236">
        <ele>301</ele>
        <time>2019-03-05T07:09:52Z</time>
      </trkpt>
      <trkpt lat="43.93615" lon="5.30208">
        <ele>302</ele>
        <time>2019-03-05T07:10:52Z</time>
      </trkpt>
      <trkpt lat="43.9361" lon="5.30177">
        <ele>302</ele>
        <time>2019-03-05T07:11:52Z</time>
      </trkpt>
      <trkpt lat="43.93607" lon="5.30152">
        <ele>302</ele>
        <time>2019-03-05T07:12:52Z</time>
      </trkpt>
      <trkpt lat="43.93607" lon="5.30124">
        <ele>302</ele>
        <time>2019-03-05T07:13:52Z</time>
      </trkpt>
      <trkpt lat="43.93605" lon="5.30091">
        <ele>303</ele>
        <time>2019-03-05T07:14:52Z</time>
      </trkpt>
      <trkpt lat="43.93602" lon="5.30067">
        <ele>303</ele>
        <time>2019-03-05T07:15:52Z</time>
      </trkpt>
      <trkpt lat="43.93601" lon="5.3005">
        <ele>302</ele>
        <time>2019-03-05T07:16:52Z</time>
      </trkpt>
      <trkpt lat="43.93602" lon="5.30045">
        <ele>303</ele>
        <time>2019-03-05T07:17:52Z</time>
      </trkpt>
      <trkpt lat="43.936" lon="5.30044">
        <ele>302</ele>
        <time>2019-03-05T07:18:52Z</time>
      </trkpt>
      <trkpt lat="43.936" lon="5.30036">
        <ele>302</ele>
        <time>2019-03-05T07:19:52Z</time>
      </trkpt>
      <trkpt lat="43.93605" lon="5.30011">
        <ele>303</ele>
        <time>2019-03-05T07:20:52Z</time>
      </trkpt>
      <trkpt lat="43.93608" lon="5.30004">
        <ele>303</ele>
        <time>2019-03-05T07:21:52Z</time>
      </trkpt>
      <trkpt lat="43.93612" lon="5.29979">
        <ele>303</ele>
        <time>2019-03-05T07:22:52Z</time>
      </trkpt>
      <trkpt lat="43.93618" lon="5.29957">
        <ele>304</ele>
        <time>2019-03-05T07:23:52Z</time>
      </trkpt>
      <trkpt lat="43.93623" lon="5.2993">
        <ele>304</ele>
        <time>2019-03-05T07:24:52Z</time>
      </trkpt>
      <trkpt lat="43.93627" lon="5.29859">
        <ele>306</ele>
        <time>2019-03-05T07:25:52Z</time>
      </trkpt>
      <trkpt lat="43.93627" lon="5.2984">
        <ele>307</ele>
        <time>2019-03-05T07:26:52Z</time>
      </trkpt>
      <trkpt lat="43.93622" lon="5.29818">
        <ele>306</ele>
        <time>2019-03-05T07:27:52Z</time>
      </trkpt>
      <trkpt lat="43.93619" lon="5.29793">
        <ele>306</ele>
        <time>2019-03-05T07:28:52Z</time>
      </trkpt>
      <trkpt lat="43.93608" lon="5.29747">
        <ele>306</ele>
        <time>2019-03-05T07:29:52Z</time>
      </trkpt>
      <trkpt lat="43.93602" lon="5.2972">
        <ele>305</ele>
        <time>2019-03-05T07:30:52Z</time>
      </trkpt>
      <trkpt lat="43.93598" lon="5.29701">
        <ele>305</ele>
        <time>2019-03-05T07:31:52Z</time>
      </trkpt>
      <trkpt lat="43.93597" lon="5.29683">
        <ele>305</ele>
        <time>2019-03-05T07:32:52Z</time>
      </trkpt>
      <trkpt lat="43.93597" lon="5.29683">
        <ele>305</ele>
        <time>2019-03-05T07:33:52Z</time>
      </trkpt>
      <trkpt lat="43.93605" lon="5.29677">
        <ele>306</ele>
        <time>2019-03-05T07:34:52Z</time>
      </trkpt>
      <trkpt lat="43.93607" lon="5.2967">
        <ele>306</ele>
        <time>2019-03-05T07:35:52Z</time>
      </trkpt>
      <trkpt lat="43.93615" lon="5.29649">
        <ele>308</ele>
        <time>2019-03-05T07:36:52Z</time>
      </trkpt>
      <trkpt lat="43.93627" lon="5.29632">
        <ele>309</ele>
        <time>2019-03-05T07:37:52Z</time>
      </trkpt>
      <trkpt lat="43.93636" lon="5.29612">
        <ele>311</ele>
        <time>2019-03-05T07:38:52Z</time>
      </trkpt>
      <trkpt lat="43.93644" lon="5.29592">
        <ele>312</ele>
        <time>2019-03-05T07:39:52Z</time>
      </trkpt>
      <trkpt lat="43.9367" lon="5.29541">
        <ele>316</ele>
        <time>2019-03-05T07:40:52Z</time>
      </trkpt>
      <trkpt lat="43.93678" lon="5.29523">
        <ele>318</ele>
        <time>2019-03-05T07:41:52Z</time>
      </trkpt>
      <trkpt lat="43.93687" lon="5.29507">
        <ele>320</ele>
        <time>2019-03-05T07:42:52Z</time>
      </trkpt>
      <trkpt lat="43.93698" lon="5.2949">
        <ele>322</ele>
        <time>2019-03-05T07:43:52Z</time>
      </trkpt>
      <trkpt lat="43.93712" lon="5.29472">
        <ele>325</ele>
        <time>2019-03-05T07:44:52Z</time>
      </trkpt>
      <trkpt lat="43.93724" lon="5.29452">
        <ele>328</ele>
        <time>2019-03-05T07:45:52Z</time>
      </trkpt>
      <trkpt lat="43.93734" lon="5.2943">
        <ele>330</ele>
        <time>2019-03-05T07:46:52Z</time>
      </trkpt>
      <trkpt lat="43.93743" lon="5.29411">
        <ele>331</ele>
        <time>2019-03-05T07:47:52Z</time>
      </trkpt>
      <trkpt lat="43.93754" lon="5.29385">
        <ele>332</ele>
        <time>2019-03-05T07:48:52Z</time>
      </trkpt>
      <trkpt lat="43.93756" lon="5.29376">
        <ele>331</ele>
        <time>2019-03-05T07:49:52Z</time>
      </trkpt>
      <trkpt lat="43.93765" lon="5.29357">
        <ele>332</ele>
        <time>2019-03-05T07:50:52Z</time>
      </trkpt>
      <trkpt lat="43.9378" lon="5.29333">
        <ele>333</ele>
        <time>2019-03-05T07:51:52Z</time>
      </trkpt>
      <trkpt lat="43.93785" lon="5.29328">
        <ele>333</ele>
        <time>2019-03-05T07:52:52Z</time>
      </trkpt>
      <trkpt lat="43.93799" lon="5.2931">
        <ele>333</ele>
        <time>2019-03-05T07:53:52Z</time>
      </trkpt>
      <trkpt lat="43.93837" lon="5.2928">
        <ele>336</ele>
        <time>2019-03-05T07:54:52Z</time>
      </trkpt>
      <trkpt lat="43.93855" lon="5.29266">
        <ele>336</ele>
        <time>2019-03-05T07:55:52Z</time>
      </trkpt>
      <trkpt lat="43.93875" lon="5.29254">
        <ele>337</ele>
        <time>2019-03-05T07:56:52Z</time>
      </trkpt>
      <trkpt lat="43.93891" lon="5.29244">
        <ele>338</ele>
        <time>2019-03-05T07:57:52Z</time>
      </trkpt>
      <trkpt lat="43.93908" lon="5.2923">
        <ele>340</ele>
        <time>2019-03-05T07:58:52Z</time>
      </trkpt>
      <trkpt lat="43.93926" lon="5.29221">
        <ele>339</ele>
        <time>2019-03-05T07:59:52Z</time>
      </trkpt>
      <trkpt lat="43.93943" lon="5.29207">
        <ele>336</ele>
        <time>2019-03-05T08:00:52Z</time>
      </trkpt>
      <trkpt lat="43.93949" lon="5.29196">
        <ele>334</ele>
        <time>2019-03-05T08:01:52Z</time>
      </trkpt>
    </trkseg>
  </trk>
</gpx>